SondeTracker

Meteorological Radiosondes Database

Operations

Sounding was ended - last measurement: 2022-12-06 08:48:16z

MAP
About Radiosonde

Number: U2750203

Launch Site: Eskmeals (GB)

Type: RS41-SG

AUX: NO

Frequency: 405.10 MHz

Max Speed: 67 km/h at 21686 m

Average Speed: 30.52 km/h

Max Altitude: 21748 m

Average Ascent Speed: 4.70 m/s

Average Descent Speed: 5.01 m/s

Status: LOST

Status Changes
Launch Site Type AUX Frequency Status Finder Landing Point Description Changes made by
MHz LOST 0, 0 AUTO STATUS: Probably lost in the water [BOT]AUTO-STATUS - 2022-12-06 09:10:17z
APRS Statistics

Received Frames: 772

First Frame [UTC]: 2022-12-06 06:22:53z

Last Frame [UTC]: 2022-12-06 08:48:16z

Receivers: 2E0KXT-14, F5RZC-14, G3HRZ, G4VFL-14, G8OUX-14, GB3EI-15, GURGE2-15

Flight Time: 02:25:23 h

Distance From First Measurement: 67.05 km

Nearest City: Blackpool (GB) [39.52 km]

Nearest Hunter: G3WBB [42.86 km]

Ground Altitude: -123 m

Distance from QTH: 0.00 km

APRS Data
Receiver Number Date/Time [UTC] φ λ Course [°] Speed [km/h] Altitude [m] Description
G4VFL-14U27502032022-12-06 08:48:1653.7243-3.6321419313361Clb=-2.3m/s t=3.2C h=86.2% 405.10MHz Type=RS41-SG Details on http://radiosondy.info
G4VFL-14U27502032022-12-06 08:48:0153.7247-3.6317420113403Clb=-2.8m/s t=2.8C h=89.5% 405.10MHz Type=RS41-SG Details on http://radiosondy.info
G4VFL-14U27502032022-12-06 08:47:5553.7249-3.6316719315421Clb=-3.3m/s t=2.6C h=90.0% 405.10MHz Type=RS41-SG TxOff=7h19m batt=2.7V Details on http://radiosondy.info
G4VFL-14U27502032022-12-06 08:47:4953.7251-3.6316418315443Clb=-3.6m/s t=2.4C h=90.5% 405.10MHz Type=RS41-SG Details on http://radiosondy.info
G4VFL-14U27502032022-12-06 08:47:4453.7253-3.6315919715460Clb=-3.0m/s t=2.2C h=91.5% 405.10MHz Type=RS41-SG Details on http://radiosondy.info
G4VFL-14U27502032022-12-06 08:47:3753.7256-3.6314819111485Clb=-4.2m/s t=2.0C h=92.7% 405.10MHz Type=RS41-SG batt=2.6V Details on http://radiosondy.info
G4VFL-14U27502032022-12-06 08:47:3153.7257-3.6313621215507Clb=-4.0m/s t=1.8C h=94.4% 405.10MHz Type=RS41-SG Details on http://radiosondy.info
G4VFL-14U27502032022-12-06 08:47:2553.7259-3.6312718119529Clb=-4.6m/s t=1.6C h=94.0% 405.10MHz Type=RS41-SG Details on http://radiosondy.info
G4VFL-14U27502032022-12-06 08:47:1953.7262-3.6312517917559Clb=-4.4m/s t=1.5C h=86.6% 405.10MHz Type=RS41-SG batt=2.7V Details on http://radiosondy.info
G4VFL-14U27502032022-12-06 08:47:1353.7265-3.6312817817587Clb=-4.6m/s t=1.1C h=89.9% 405.10MHz Type=RS41-SG Details on http://radiosondy.info
G4VFL-14U27502032022-12-06 08:47:0753.7267-3.6312619115611Clb=-3.0m/s t=0.8C 405.10MHz Type=RS41-SG TxOff=7h20m Details on http://radiosondy.info
G4VFL-14U27502032022-12-06 08:47:0253.7269-3.6311619915628Clb=-3.9m/s t=0.7C 405.10MHz Type=RS41-SG batt=2.6V Details on http://radiosondy.info
G4VFL-14U27502032022-12-06 08:46:5653.7271-3.6310619615654Clb=-3.9m/s t=0.4C 405.10MHz Type=RS41-SG Details on http://radiosondy.info
G4VFL-14U27502032022-12-06 08:45:4553.7296-3.6313918919909Clb=-2.7m/s t=-0.5C h=80.9% 405.10MHz Type=RS41-SG Details on http://radiosondy.info
G4VFL-14U27502032022-12-06 08:45:3953.7299-3.631319319926Clb=-2.9m/s t=-0.4C h=79.3% 405.10MHz Type=RS41-SG batt=2.7V Details on http://radiosondy.info
G4VFL-14U27502032022-12-06 08:45:3453.7301-3.6311919919940Clb=-2.5m/s t=-0.4C h=76.4% 405.10MHz Type=RS41-SG Details on http://radiosondy.info
G4VFL-14U27502032022-12-06 08:45:2853.7303-3.6310619819957Clb=-3.0m/s t=-0.5C h=75.6% 405.10MHz Type=RS41-SG Details on http://radiosondy.info
G4VFL-14U27502032022-12-06 08:45:2253.7306-3.6309219819974Clb=-2.6m/s t=-0.5C h=74.4% 405.10MHz Type=RS41-SG batt=2.7V Details on http://radiosondy.info
G4VFL-14U27502032022-12-06 08:45:1753.7308-3.6308119819989Clb=-3.0m/s t=-0.7C h=76.5% 405.10MHz Type=RS41-SG TxOff=7h22m Details on http://radiosondy.info
G4VFL-14U27502032022-12-06 08:45:1153.7311-3.63066200201006Clb=-2.6m/s t=-0.9C h=77.6% 405.10MHz Type=RS41-SG Details on http://radiosondy.info
G4VFL-14U27502032022-12-06 08:45:0553.7313-3.63049202201023Clb=-2.6m/s t=-1.1C h=78.3% 405.10MHz Type=RS41-SG batt=2.7V Details on http://radiosondy.info
G4VFL-14U27502032022-12-06 08:45:0053.7316-3.63035201191035Clb=-2.5m/s t=-1.2C h=78.3% 405.10MHz Type=RS41-SG Details on http://radiosondy.info
G4VFL-14U27502032022-12-06 08:44:5453.7318-3.63019200191051Clb=-2.4m/s t=-1.2C h=77.3% 405.10MHz Type=RS41-SG Details on http://radiosondy.info
G4VFL-14U27502032022-12-06 08:44:4853.7321-3.63003201191065Clb=-2.6m/s t=-1.1C h=73.9% 405.10MHz Type=RS41-SG batt=2.6V Details on http://radiosondy.info
G4VFL-14U27502032022-12-06 08:44:4253.7324-3.62987200201080Clb=-2.5m/s t=-1.1C h=71.7% 405.10MHz Type=RS41-SG Details on http://radiosondy.info
G4VFL-14U27502032022-12-06 08:44:3653.7327-3.62972198201095Clb=-2.3m/s t=-1.2C h=72.6% 405.10MHz Type=RS41-SG Details on http://radiosondy.info
G4VFL-14U27502032022-12-06 08:44:3053.7329-3.62957198201109Clb=-2.0m/s t=-1.4C h=73.4% 405.10MHz Type=RS41-SG TxOff=7h23m batt=2.7V Details on http://radiosondy.info
G4VFL-14U27502032022-12-06 08:44:2553.7332-3.62945195201120Clb=-2.4m/s t=-1.5C h=74.1% 405.10MHz Type=RS41-SG Details on http://radiosondy.info
G4VFL-14U27502032022-12-06 08:44:1953.7335-3.62934191191135Clb=-2.1m/s t=-1.6C h=75.0% 405.10MHz Type=RS41-SG Details on http://radiosondy.info
G4VFL-14U27502032022-12-06 08:44:1353.7337-3.62924196191150Clb=-2.6m/s t=-1.7C h=75.5% 405.10MHz Type=RS41-SG batt=2.7V Details on http://radiosondy.info
G4VFL-14U27502032022-12-06 08:44:0753.734-3.62911199171164Clb=-2.4m/s t=-1.9C h=76.3% 405.10MHz Type=RS41-SG Details on http://radiosondy.info
G4VFL-14U27502032022-12-06 08:44:0153.7342-3.62897202171179Clb=-2.6m/s t=-2.0C h=77.8% 405.10MHz Type=RS41-SG Details on http://radiosondy.info
G4VFL-14U27502032022-12-06 08:43:5553.7345-3.6288204171195Clb=-2.4m/s t=-2.1C h=79.2% 405.10MHz Type=RS41-SG batt=2.7V Details on http://radiosondy.info
G4VFL-14U27502032022-12-06 08:42:4753.7369-3.62673204151358Clb=-2.1m/s t=-3.1C h=83.6% 405.10MHz Type=RS41-SG Details on http://radiosondy.info
G4VFL-14U27502032022-12-06 08:42:4153.7371-3.62658206151371Clb=-2.5m/s t=-3.3C h=84.1% 405.10MHz Type=RS41-SG TxOff=7h25m Details on http://radiosondy.info
G4VFL-14U27502032022-12-06 08:42:3653.7373-3.62647200131383Clb=-2.3m/s t=-3.4C h=84.9% 405.10MHz Type=RS41-SG batt=2.6V Details on http://radiosondy.info
G4VFL-14U27502032022-12-06 08:42:3153.7375-3.62638200151395Clb=-2.4m/s t=-3.5C h=85.5% 405.10MHz Type=RS41-SG Details on http://radiosondy.info
G4VFL-14U27502032022-12-06 08:42:2553.7377-3.62625202151411Clb=-2.4m/s t=-3.6C h=87.4% 405.10MHz Type=RS41-SG Details on http://radiosondy.info
G4VFL-14U27502032022-12-06 08:42:1953.7379-3.62614201151426Clb=-2.5m/s t=-3.7C h=88.9% 405.10MHz Type=RS41-SG batt=2.6V Details on http://radiosondy.info
G4VFL-14U27502032022-12-06 08:42:1353.738-3.62601198151440Clb=-2.5m/s t=-3.7C h=89.2% 405.10MHz Type=RS41-SG Details on http://radiosondy.info
G4VFL-14U27502032022-12-06 08:42:0753.7383-3.62589198171455Clb=-2.4m/s t=-3.9C h=89.6% 405.10MHz Type=RS41-SG Details on http://radiosondy.info
G4VFL-14U27502032022-12-06 08:42:0153.7385-3.62577196171471Clb=-2.7m/s t=-4.0C h=90.4% 405.10MHz Type=RS41-SG batt=2.7V Details on http://radiosondy.info
G4VFL-14U27502032022-12-06 08:41:5553.7387-3.62568191191487Clb=-2.1m/s t=-4.2C h=91.2% 405.10MHz Type=RS41-SG TxOff=7h25m Details on http://radiosondy.info
G4VFL-14U27502032022-12-06 08:41:4953.739-3.62559190191501Clb=-2.3m/s t=-4.2C h=91.0% 405.10MHz Type=RS41-SG Details on http://radiosondy.info
G4VFL-14U27502032022-12-06 08:41:4353.7393-3.62552189201515Clb=-2.5m/s t=-4.3C h=88.9% 405.10MHz Type=RS41-SG batt=2.6V Details on http://radiosondy.info
G4VFL-14U27502032022-12-06 08:41:3653.7396-3.6254194221534Clb=-2.6m/s t=-4.4C h=88.5% 405.10MHz Type=RS41-SG Details on http://radiosondy.info
G4VFL-14U27502032022-12-06 08:41:3053.74-3.62527195221550Clb=-2.6m/s t=-4.5C h=87.1% 405.10MHz Type=RS41-SG Details on http://radiosondy.info
G4VFL-14U27502032022-12-06 08:41:2453.7403-3.62513194241566Clb=-2.7m/s t=-4.6C h=87.0% 405.10MHz Type=RS41-SG batt=2.7V Details on http://radiosondy.info
G4VFL-14U27502032022-12-06 08:41:1853.7406-3.62498194241582Clb=-2.6m/s t=-4.6C h=85.7% 405.10MHz Type=RS41-SG Details on http://radiosondy.info
G4VFL-14U27502032022-12-06 08:41:1253.741-3.62482196261598Clb=-2.9m/s t=-4.7C h=80.8% 405.10MHz Type=RS41-SG Details on http://radiosondy.info
G4VFL-14U27502032022-12-06 08:41:0753.7413-3.62468198261611Clb=-2.1m/s t=-4.7C h=61.3% 405.10MHz Type=RS41-SG TxOff=7h26m batt=2.7V Details on http://radiosondy.info
G4VFL-14U27502032022-12-06 08:41:0153.7417-3.62447201241625Clb=-2.1m/s t=-4.8C h=67.1% 405.10MHz Type=RS41-SG Details on http://radiosondy.info
G4VFL-14U27502032022-12-06 08:40:5553.742-3.62429190261640Clb=-2.8m/s t=-4.9C h=59.2% 405.10MHz Type=RS41-SG Details on http://radiosondy.info
G4VFL-14U27502032022-12-06 08:39:4553.746-3.62297184191793Clb=-2.1m/s t=-4.5C h=45.7% 405.10MHz Type=RS41-SG batt=2.7V Details on http://radiosondy.info
G4VFL-14U27502032022-12-06 08:39:4053.7462-3.62292192191804Clb=-2.1m/s t=-4.5C h=45.1% 405.10MHz Type=RS41-SG Details on http://radiosondy.info
G4VFL-14U27502032022-12-06 08:39:3453.7465-3.62277203201818Clb=-1.6m/s t=-4.6C h=44.5% 405.10MHz Type=RS41-SG Details on http://radiosondy.info
G4VFL-14U27502032022-12-06 08:39:2253.747-3.62227209201842Clb=-1.8m/s t=-4.8C h=40.2% 405.10MHz Type=RS41-SG Details on http://radiosondy.info
G4VFL-14U27502032022-12-06 08:39:1653.7473-3.62204207201854Clb=-1.9m/s t=-4.8C h=37.6% 405.10MHz Type=RS41-SG TxOff=7h28m Details on http://radiosondy.info
G4VFL-14U27502032022-12-06 08:39:1153.7475-3.62187206201867Clb=-2.0m/s t=-4.9C h=38.6% 405.10MHz Type=RS41-SG batt=2.7V Details on http://radiosondy.info
G4VFL-14U27502032022-12-06 08:39:0553.7478-3.62163207221881Clb=-2.6m/s t=-5.0C h=45.9% 405.10MHz Type=RS41-SG Details on http://radiosondy.info
G4VFL-14U27502032022-12-06 08:38:5953.7481-3.62134212241896Clb=-2.3m/s t=-5.1C h=51.7% 405.10MHz Type=RS41-SG Details on http://radiosondy.info
G4VFL-14U27502032022-12-06 08:38:5353.7484-3.62102213241911Clb=-2.1m/s t=-5.1C h=65.3% 405.10MHz Type=RS41-SG batt=2.7V Details on http://radiosondy.info
G4VFL-14U27502032022-12-06 08:38:4853.7487-3.62075213241923Clb=-2.4m/s t=-5.1C h=70.7% 405.10MHz Type=RS41-SG Details on http://radiosondy.info
G4VFL-14U27502032022-12-06 08:38:4253.749-3.62043215221938Clb=-2.2m/s t=-5.2C h=71.3% 405.10MHz Type=RS41-SG Details on http://radiosondy.info
G4VFL-14U27502032022-12-06 08:38:3653.7492-3.62012214221952Clb=-2.7m/s t=-5.3C h=73.3% 405.10MHz Type=RS41-SG batt=2.7V Details on http://radiosondy.info
G4VFL-14U27502032022-12-06 08:38:3053.7495-3.61982212201968Clb=-2.5m/s t=-5.0C h=76.6% 405.10MHz Type=RS41-SG TxOff=7h29m Details on http://radiosondy.info
G4VFL-14U27502032022-12-06 08:38:2553.7497-3.6196210221981Clb=-2.8m/s t=-4.9C h=75.6% 405.10MHz Type=RS41-SG Details on http://radiosondy.info
G4VFL-14U27502032022-12-06 08:38:1953.75-3.61932211261997Clb=-2.3m/s t=-5.0C h=76.5% 405.10MHz Type=RS41-SG batt=2.6V Details on http://radiosondy.info
G4VFL-14U27502032022-12-06 08:38:1353.7503-3.61901208282013Clb=-1.8m/s t=-5.0C h=76.6% 405.10MHz Type=RS41-SG Details on http://radiosondy.info
G4VFL-14U27502032022-12-06 08:38:0753.7507-3.61873200262027Clb=-2.0m/s t=-5.2C h=76.0% 405.10MHz Type=RS41-SG Details on http://radiosondy.info
G4VFL-14U27502032022-12-06 08:38:0153.751-3.61848203262040Clb=-2.2m/s t=-5.3C h=76.6% 405.10MHz Type=RS41-SG batt=2.6V Details on http://radiosondy.info
G4VFL-14U27502032022-12-06 08:37:5553.7514-3.61822204282055Clb=-2.7m/s t=-5.4C h=78.1% 405.10MHz Type=RS41-SG Details on http://radiosondy.info
G3HRZU27502032022-12-06 08:37:3253.7547-3.61633194332195Clb=-3.2m/s t=-6.4C h=81.6% p=-1.0hPa 405.101 MHz Type=RS41-SG ser=U2750203 Radiosonde
G3HRZU27502032022-12-06 08:37:0153.7551-3.61617200332206Clb=-2.8m/s t=-6.5C h=81.8% p=-1.0hPa 405.101 MHz Type=RS41-SG ser=U2750203 Radiosonde
G4VFL-14U27502032022-12-06 08:36:4353.7564-3.61525202332250Clb=-2.2m/s t=-6.5C h=69.7% 405.10MHz Type=RS41-SG Details on http://radiosondy.info
G4VFL-14U27502032022-12-06 08:36:3753.7568-3.61495201312270Clb=-4.0m/s t=-5.9C h=38.7% 405.10MHz Type=RS41-SG TxOff=7h31m batt=2.6V Details on http://radiosondy.info
G4VFL-14U27502032022-12-06 08:36:3153.7573-3.61465204332296Clb=-4.2m/s t=-5.6C h=27.6% 405.10MHz Type=RS41-SG Details on http://radiosondy.info
G3HRZU27502032022-12-06 08:36:2953.7574-3.61455203312303Clb=-3.2m/s t=-5.5C h=24.4% p=-1.0hPa 405.101 MHz Type=RS41-SG ser=U2750203 Radiosonde
G4VFL-14U27502032022-12-06 08:36:2553.7577-3.61433203332317Clb=-3.2m/s t=-5.5C h=23.8% 405.10MHz Type=RS41-SG Details on http://radiosondy.info
G4VFL-14U27502032022-12-06 08:36:2053.7581-3.61408201302334Clb=-2.9m/s t=-5.5C h=23.1% 405.10MHz Type=RS41-SG batt=2.6V Details on http://radiosondy.info
G4VFL-14U27502032022-12-06 08:36:1453.7585-3.61383201312353Clb=-3.6m/s t=-5.3C h=23.3% 405.10MHz Type=RS41-SG Details on http://radiosondy.info
G4VFL-14U27502032022-12-06 08:36:0853.759-3.61355198312374Clb=-2.7m/s t=-5.1C h=22.4% 405.10MHz Type=RS41-SG Details on http://radiosondy.info
G4VFL-14U27502032022-12-06 08:36:0253.7594-3.61332198332393Clb=-3.4m/s t=-5.2C h=21.5% 405.10MHz Type=RS41-SG batt=2.7V Details on http://radiosondy.info
G4VFL-14U27502032022-12-06 08:35:5653.7599-3.61304202312418Clb=-4.8m/s t=-5.3C h=20.4% 405.10MHz Type=RS41-SG Details on http://radiosondy.info
G4VFL-14U27502032022-12-06 08:35:5053.7603-3.61276202312441Clb=-1.9m/s t=-5.3C h=18.8% 405.10MHz Type=RS41-SG TxOff=7h31m Details on http://radiosondy.info
G4VFL-14U27502032022-12-06 08:35:4453.7607-3.61249201302459Clb=-3.1m/s t=-5.1C h=16.2% 405.10MHz Type=RS41-SG batt=2.7V Details on http://radiosondy.info
G4VFL-14U27502032022-12-06 08:35:3853.7612-3.6122203302479Clb=-3.5m/s t=-5.0C h=13.8% 405.10MHz Type=RS41-SG Details on http://radiosondy.info
G4VFL-14U27502032022-12-06 08:35:3353.7615-3.61195205302497Clb=-3.4m/s t=-5.1C h=13.6% 405.10MHz Type=RS41-SG Details on http://radiosondy.info
G4VFL-14U27502032022-12-06 08:35:2753.7619-3.61162206302519Clb=-3.5m/s t=-5.2C h=15.3% 405.10MHz Type=RS41-SG batt=2.7V Details on http://radiosondy.info
G4VFL-14U27502032022-12-06 08:35:2153.7623-3.61131206302541Clb=-3.7m/s t=-5.4C h=22.2% 405.10MHz Type=RS41-SG Details on http://radiosondy.info
G4VFL-14U27502032022-12-06 08:35:1453.7628-3.6109209312566Clb=-3.9m/s t=-5.6C h=30.4% 405.10MHz Type=RS41-SG Details on http://radiosondy.info
G4VFL-14U27502032022-12-06 08:35:0853.7632-3.6105212332588Clb=-3.5m/s t=-5.7C h=27.5% 405.10MHz Type=RS41-SG batt=2.7V Details on http://radiosondy.info
G4VFL-14U27502032022-12-06 08:35:0253.7636-3.61007209332610Clb=-3.2m/s t=-5.9C h=27.0% 405.10MHz Type=RS41-SG TxOff=7h32m Details on http://radiosondy.info
G3HRZU27502032022-12-06 08:34:5653.7646-3.60913209332668Clb=-4.0m/s t=-6.2C h=18.1% p=-1.0hPa 405.101 MHz Type=RS41-SG ser=U2750203 Radiosonde
G3HRZU27502032022-12-06 08:34:2553.7663-3.60746208312755Clb=-3.1m/s t=-6.8C h=16.2% p=-1.0hPa 405.101 MHz Type=RS41-SG ser=U2750203 Radiosonde
G3HRZU27502032022-12-06 08:33:5453.7685-3.60541209302869Clb=-4.9m/s t=-7.8C h=20.2% p=-1.0hPa 405.101 MHz Type=RS41-SG ser=U2750203 Radiosonde
G4VFL-14U27502032022-12-06 08:33:4653.769-3.60492211282905Clb=-3.8m/s t=-8.0C h=19.7% 405.10MHz Type=RS41-SG batt=2.6V Details on http://radiosondy.info
G4VFL-14U27502032022-12-06 08:33:4053.7693-3.60455213282929Clb=-3.6m/s t=-8.1C h=20.3% 405.10MHz Type=RS41-SG Details on http://radiosondy.info
G4VFL-14U27502032022-12-06 08:33:3453.7697-3.60418212282951Clb=-3.5m/s t=-8.3C h=19.6% 405.10MHz Type=RS41-SG Details on http://radiosondy.info
G4VFL-14U27502032022-12-06 08:33:2853.77-3.60383210282974Clb=-3.5m/s t=-8.5C h=19.2% 405.10MHz Type=RS41-SG batt=2.7V Details on http://radiosondy.info
G3HRZU27502032022-12-06 08:33:2353.7703-3.60356206262993Clb=-3.7m/s t=-8.7C h=18.7% p=-1.0hPa 405.101 MHz Type=RS41-SG ser=U2750203 Radiosonde
G4VFL-14U27502032022-12-06 08:33:2253.7704-3.60351208282996Clb=-3.8m/s t=-8.6C h=18.7% 405.10MHz Type=RS41-SG Details on http://radiosondy.info
G4VFL-14U27502032022-12-06 08:33:1553.7708-3.60314209283023Clb=-3.9m/s t=-8.8C h=18.6% 405.10MHz Type=RS41-SG Details on http://radiosondy.info
G4VFL-14U27502032022-12-06 08:33:0053.7718-3.60236206283078Clb=-3.6m/s t=-9.1C h=17.5% 405.10MHz Type=RS41-SG TxOff=7h34m batt=2.7V Details on http://radiosondy.info
G3HRZU27502032022-12-06 08:32:5253.7723-3.60194206283107Clb=-3.5m/s t=-9.2C h=15.2% p=-1.0hPa 405.101 MHz Type=RS41-SG ser=U2750203 Radiosonde
G4VFL-14U27502032022-12-06 08:32:4553.7727-3.60158204303133Clb=-3.5m/s t=-9.3C h=14.2% 405.10MHz Type=RS41-SG Details on http://radiosondy.info
G4VFL-14U27502032022-12-06 08:32:3053.7738-3.60086202303191Clb=-3.4m/s t=-9.8C h=16.4% 405.10MHz Type=RS41-SG Details on http://radiosondy.info
G3HRZU27502032022-12-06 08:32:2153.7744-3.60043200303224Clb=-3.7m/s t=-10.2C h=17.6% p=-1.0hPa 405.101 MHz Type=RS41-SG ser=U2750203 Radiosonde
G4VFL-14U27502032022-12-06 08:32:1453.7749-3.6001203283251Clb=-3.5m/s t=-10.3C h=19.7% 405.10MHz Type=RS41-SG batt=2.7V Details on http://radiosondy.info
G4VFL-14U27502032022-12-06 08:31:5853.7759-3.59935203223309Clb=-3.5m/s t=-10.8C h=18.8% 405.10MHz Type=RS41-SG Details on http://radiosondy.info
G3HRZU27502032022-12-06 08:31:5053.7775-3.5983202243400Clb=-3.9m/s t=-11.6C h=18.5% p=-1.0hPa 405.101 MHz Type=RS41-SG ser=U2750203 Radiosonde
G3HRZU27502032022-12-06 08:31:1953.7782-3.59777200223456Clb=-3.7m/s t=-11.9C h=16.0% p=-1.0hPa 405.101 MHz Type=RS41-SG ser=U2750203 Radiosonde
G3HRZU27502032022-12-06 08:30:4853.7797-3.59724184173570Clb=-3.7m/s t=-12.6C h=57.2% p=-1.0hPa 405.101 MHz Type=RS41-SG ser=U2750203 Radiosonde
G4VFL-14U27502032022-12-06 08:30:3153.7804-3.59713186203629Clb=-3.6m/s t=-12.9C h=55.3% 405.10MHz Type=RS41-SG Details on http://radiosondy.info
G3HRZU27502032022-12-06 08:30:1753.7811-3.59698184223685Clb=-4.0m/s t=-12.9C h=40.0% p=-1.0hPa 405.101 MHz Type=RS41-SG ser=U2750203 Radiosonde
G4VFL-14U27502032022-12-06 08:30:1553.7812-3.59697187223689Clb=-3.6m/s t=-12.8C h=41.7% 405.10MHz Type=RS41-SG batt=2.6V Details on http://radiosondy.info
G4VFL-14U27502032022-12-06 08:30:0053.782-3.59667198263750Clb=-3.8m/s t=-13.3C h=61.1% 405.10MHz Type=RS41-SG Details on http://radiosondy.info
G3HRZU27502032022-12-06 08:29:4653.783-3.59617199263808Clb=-3.7m/s t=-13.6C h=50.4% p=-1.0hPa 405.101 MHz Type=RS41-SG ser=U2750203 Radiosonde
G4VFL-14U27502032022-12-06 08:29:4453.783-3.59614201263812Clb=-3.7m/s t=-13.6C h=51.6% 405.10MHz Type=RS41-SG TxOff=7h38m Details on http://radiosondy.info
G4VFL-14U27502032022-12-06 08:29:2853.784-3.59547200263871Clb=-3.5m/s t=-13.7C h=54.1% 405.10MHz Type=RS41-SG batt=2.6V Details on http://radiosondy.info
G3HRZU27502032022-12-06 08:29:1553.7849-3.59489200263921Clb=-3.0m/s t=-14.0C h=52.4% p=-1.0hPa 405.101 MHz Type=RS41-SG ser=U2750203 Radiosonde
G4VFL-14U27502032022-12-06 08:29:1353.7849-3.59485200263924Clb=-3.1m/s t=-13.9C h=52.7% 405.10MHz Type=RS41-SG Details on http://radiosondy.info
G4VFL-14U27502032022-12-06 08:28:5753.7859-3.59428198263982Clb=-3.7m/s t=-14.4C h=52.4% 405.10MHz Type=RS41-SG Details on http://radiosondy.info
G3HRZU27502032022-12-06 08:28:4453.7871-3.59368196284046Clb=-3.8m/s t=-14.8C h=47.4% p=-1.0hPa 405.101 MHz Type=RS41-SG ser=U2750203 Radiosonde
G3HRZU27502032022-12-06 08:28:1253.789-3.5927196304145Clb=-4.0m/s t=-15.5C h=44.8% p=-1.0hPa 405.101 MHz Type=RS41-SG ser=U2750203 Radiosonde
G4VFL-14U27502032022-12-06 08:27:4453.7909-3.59161203284257Clb=-3.5m/s t=-16.2C h=44.4% 405.10MHz Type=RS41-SG batt=2.5V Details on http://radiosondy.info
G3HRZU27502032022-12-06 08:27:4153.7911-3.59148199264268Clb=-3.3m/s t=-16.1C h=38.2% p=-1.0hPa 405.101 MHz Type=RS41-SG ser=U2750203 Radiosonde
G4VFL-14U27502032022-12-06 08:27:2953.7919-3.59099201314308Clb=-3.3m/s t=-16.2C h=35.0% 405.10MHz Type=RS41-SG Details on http://radiosondy.info
G4VFL-14U27502032022-12-06 08:27:1353.7931-3.59022202314363Clb=-3.2m/s t=-16.6C h=34.8% 405.10MHz Type=RS41-SG Details on http://radiosondy.info
G3HRZU27502032022-12-06 08:27:1053.7934-3.59203314377Clb=-3.3m/s t=-16.8C h=35.0% p=-1.0hPa 405.101 MHz Type=RS41-SG ser=U2750203 Radiosonde
G4VFL-14U27502032022-12-06 08:26:5753.7942-3.5895197284420Clb=-3.7m/s t=-17.2C h=38.4% 405.10MHz Type=RS41-SG batt=2.6V Details on http://radiosondy.info
G4VFL-14U27502032022-12-06 08:26:4153.7953-3.58896197284477Clb=-3.9m/s t=-17.2C h=28.9% 405.10MHz Type=RS41-SG TxOff=7h41m Details on http://radiosondy.info
G3HRZU27502032022-12-06 08:26:3953.7954-3.58889193284484Clb=-3.7m/s t=-17.2C h=30.6% p=-1.0hPa 405.101 MHz Type=RS41-SG ser=U2750203 Radiosonde
G4VFL-14U27502032022-12-06 08:26:2553.7964-3.58847196284538Clb=-3.2m/s t=-17.6C h=34.1% 405.10MHz Type=RS41-SG Details on http://radiosondy.info
G4VFL-14U27502032022-12-06 08:26:1053.7973-3.58799196264593Clb=-4.1m/s t=-18.1C h=39.8% 405.10MHz Type=RS41-SG batt=2.6V Details on http://radiosondy.info
G3HRZU27502032022-12-06 08:26:0853.7978-3.58772196264621Clb=-2.8m/s t=-18.3C h=36.8% p=-1.0hPa 405.101 MHz Type=RS41-SG ser=U2750203 Radiosonde
G4VFL-14U27502032022-12-06 08:25:5553.7983-3.58749198284649Clb=-4.3m/s t=-18.6C h=39.7% 405.10MHz Type=RS41-SG Details on http://radiosondy.info
G3HRZU27502032022-12-06 08:25:3753.7994-3.5868201264722Clb=-3.9m/s t=-19.3C h=35.6% p=-1.0hPa 405.101 MHz Type=RS41-SG ser=U2750203 Radiosonde
G3HRZU27502032022-12-06 08:25:0653.8014-3.58496215304846Clb=-4.2m/s t=-19.6C h=30.4% p=-1.0hPa 405.101 MHz Type=RS41-SG ser=U2750203 Radiosonde
G4VFL-14U27502032022-12-06 08:24:4553.8027-3.58323220334931Clb=-4.0m/s t=-19.8C h=8.3% 405.10MHz Type=RS41-SG Details on http://radiosondy.info
G3HRZU27502032022-12-06 08:24:3553.8034-3.58235218334970Clb=-4.0m/s t=-20.1C h=7.6% p=-1.0hPa 405.101 MHz Type=RS41-SG ser=U2750203 Radiosonde
G4VFL-14U27502032022-12-06 08:24:2953.8038-3.58182221334994Clb=-3.8m/s t=-20.3C h=8.0% 405.10MHz Type=RS41-SG batt=2.6V Details on http://radiosondy.info
G4VFL-14U27502032022-12-06 08:24:1353.8048-3.58037218355057Clb=-3.7m/s t=-20.9C h=8.8% 405.10MHz Type=RS41-SG Details on http://radiosondy.info
G3HRZU27502032022-12-06 08:24:0453.8055-3.57947216335096Clb=-3.8m/s t=-21.1C h=8.8% p=-1.0hPa 405.101 MHz Type=RS41-SG ser=U2750203 Radiosonde
G4VFL-14U27502032022-12-06 08:23:5853.8059-3.57902218355116Clb=-4.0m/s t=-21.2C h=9.8% 405.10MHz Type=RS41-SG Details on http://radiosondy.info
G4VFL-14U27502032022-12-06 08:23:4353.8069-3.57766220355178Clb=-3.8m/s t=-21.8C h=10.9% 405.10MHz Type=RS41-SG TxOff=7h44m batt=2.6V Details on http://radiosondy.info
G3HRZU27502032022-12-06 08:23:3353.8076-3.57673219335219Clb=-4.2m/s t=-22.2C h=11.3% p=-1.0hPa 405.101 MHz Type=RS41-SG ser=U2750203 Radiosonde
G4VFL-14U27502032022-12-06 08:23:2653.808-3.5761218335248Clb=-4.0m/s t=-22.4C h=11.2% 405.10MHz Type=RS41-SG Details on http://radiosondy.info
G4VFL-14U27502032022-12-06 08:23:1053.8091-3.57473216335314Clb=-3.8m/s t=-22.9C h=11.4% 405.10MHz Type=RS41-SG Details on http://radiosondy.info
G3HRZU27502032022-12-06 08:23:0253.8097-3.57406215335348Clb=-4.1m/s t=-23.2C h=9.8% p=-1.0hPa 405.101 MHz Type=RS41-SG ser=U2750203 Radiosonde
G4VFL-14U27502032022-12-06 08:22:5453.8102-3.57343213285382Clb=-4.0m/s t=-23.4C h=9.6% 405.10MHz Type=RS41-SG batt=2.5V Details on http://radiosondy.info
G3HRZU27502032022-12-06 08:22:3153.8118-3.57181212305475Clb=-3.6m/s t=-24.2C h=5.2% p=-1.0hPa 405.101 MHz Type=RS41-SG ser=U2750203 Radiosonde
G3HRZU27502032022-12-06 08:22:0053.8139-3.56984205285601Clb=-4.2m/s t=-25.0C h=4.4% p=-1.0hPa 405.101 MHz Type=RS41-SG ser=U2750203 Radiosonde
G4VFL-14U27502032022-12-06 08:21:3253.8155-3.56855205225706Clb=-3.8m/s t=-25.6C h=12.4% 405.10MHz Type=RS41-SG Details on http://radiosondy.info
G3HRZU27502032022-12-06 08:21:2953.8157-3.56838206225721Clb=-3.6m/s t=-25.8C h=14.6% p=-1.0hPa 405.101 MHz Type=RS41-SG ser=U2750203 Radiosonde
G4VFL-14U27502032022-12-06 08:21:1653.8163-3.56786204205767Clb=-3.8m/s t=-26.2C h=31.2% 405.10MHz Type=RS41-SG Details on http://radiosondy.info
G4VFL-14U27502032022-12-06 08:21:0053.8171-3.56722206195832Clb=-3.5m/s t=-26.6C h=23.0% 405.10MHz Type=RS41-SG batt=2.6V Details on http://radiosondy.info
G3HRZU27502032022-12-06 08:20:5853.8172-3.56711204195844Clb=-3.7m/s t=-26.8C h=22.8% p=-1.0hPa 405.101 MHz Type=RS41-SG ser=U2750203 Radiosonde
G4VFL-14U27502032022-12-06 08:20:4453.8177-3.56669205195895Clb=-3.6m/s t=-27.1C h=27.8% 405.10MHz Type=RS41-SG Details on http://radiosondy.info
G4VFL-14U27502032022-12-06 08:20:2853.8184-3.56618206195957Clb=-3.8m/s t=-27.7C h=46.7% 405.10MHz Type=RS41-SG TxOff=7h47m Details on http://radiosondy.info
G3HRZU27502032022-12-06 08:20:2753.8185-3.56611206175965Clb=-3.7m/s t=-27.8C h=45.8% p=-1.0hPa 405.101 MHz Type=RS41-SG ser=U2750203 Radiosonde
G4VFL-14U27502032022-12-06 08:20:1253.819-3.56565207176020Clb=-3.6m/s t=-28.2C h=49.8% 405.10MHz Type=RS41-SG batt=2.6V Details on http://radiosondy.info
G4VFL-14U27502032022-12-06 08:19:5653.8196-3.56516207156082Clb=-3.5m/s t=-28.6C h=41.1% 405.10MHz Type=RS41-SG Details on http://radiosondy.info
G3HRZU27502032022-12-06 08:19:2453.8207-3.56431212156210Clb=-4.1m/s t=-29.6C h=43.6% p=-1.0hPa 405.101 MHz Type=RS41-SG ser=U2750203 Radiosonde
G3HRZU27502032022-12-06 08:18:5453.8217-3.56308222156337Clb=-4.1m/s t=-30.3C h=5.8% p=-1.0hPa 405.101 MHz Type=RS41-SG ser=U2750203 Radiosonde
G4VFL-14U27502032022-12-06 08:18:4653.8219-3.56276224176366Clb=-4.0m/s t=-30.3C h=5.0% 405.10MHz Type=RS41-SG Details on http://radiosondy.info
G4VFL-14U27502032022-12-06 08:18:3153.8224-3.56207217196429Clb=-4.1m/s t=-30.8C h=5.4% 405.10MHz Type=RS41-SG batt=2.5V Details on http://radiosondy.info
G3HRZU27502032022-12-06 08:18:2253.8227-3.56164220176466Clb=-4.0m/s t=-31.0C h=4.8% p=-1.0hPa 405.101 MHz Type=RS41-SG ser=U2750203 Radiosonde
G4VFL-14U27502032022-12-06 08:18:1353.823-3.56117222196504Clb=-3.9m/s t=-31.1C h=5.4% 405.10MHz Type=RS41-SG Details on http://radiosondy.info
G4VFL-14U27502032022-12-06 08:17:5853.8235-3.5604223206564Clb=-3.8m/s t=-31.7C h=6.0% 405.10MHz Type=RS41-SG Details on http://radiosondy.info
G3HRZU27502032022-12-06 08:17:5153.8238-3.55998224206593Clb=-4.1m/s t=-32.0C h=5.6% p=-1.0hPa 405.101 MHz Type=RS41-SG ser=U2750203 Radiosonde
G4VFL-14U27502032022-12-06 08:17:4353.8241-3.55949227206626Clb=-3.7m/s t=-32.2C h=8.6% 405.10MHz Type=RS41-SG batt=2.5V Details on http://radiosondy.info
G4VFL-14U27502032022-12-06 08:17:2753.8246-3.55848225226689Clb=-3.7m/s t=-32.6C h=15.3% 405.10MHz Type=RS41-SG TxOff=7h50m Details on http://radiosondy.info
G3HRZU27502032022-12-06 08:17:2053.8249-3.55805223226717Clb=-3.9m/s t=-32.9C h=14.8% p=-1.0hPa 405.101 MHz Type=RS41-SG ser=U2750203 Radiosonde
G4VFL-14U27502032022-12-06 08:17:1153.8253-3.55746224226750Clb=-3.6m/s t=-33.2C h=16.7% 405.10MHz Type=RS41-SG Details on http://radiosondy.info
G4VFL-14U27502032022-12-06 08:16:5653.8259-3.55649225246806Clb=-3.8m/s t=-33.5C h=21.0% 405.10MHz Type=RS41-SG batt=2.5V Details on http://radiosondy.info
G3HRZU27502032022-12-06 08:16:4953.8262-3.55602220226832Clb=-3.7m/s t=-33.8C h=20.1% p=-1.0hPa 405.101 MHz Type=RS41-SG ser=U2750203 Radiosonde
G3HRZU27502032022-12-06 08:16:1853.8276-3.55398219226949Clb=-3.5m/s t=-34.6C h=21.0% p=-1.0hPa 405.101 MHz Type=RS41-SG ser=U2750203 Radiosonde
G3HRZU27502032022-12-06 08:15:4753.8289-3.55202218247060Clb=-3.7m/s t=-35.6C h=29.3% p=-1.0hPa 405.101 MHz Type=RS41-SG ser=U2750203 Radiosonde
G4VFL-14U27502032022-12-06 08:15:3253.8297-3.55103220267118Clb=-3.9m/s t=-36.1C h=34.6% 405.10MHz Type=RS41-SG Details on http://radiosondy.info
G3HRZU27502032022-12-06 08:15:1653.8304-3.54996218247178Clb=-3.9m/s t=-36.7C h=38.2% p=-1.0hPa 405.101 MHz Type=RS41-SG ser=U2750203 Radiosonde
G4VFL-14U27502032022-12-06 08:15:0053.8312-3.54887221247241Clb=-3.6m/s t=-37.3C h=43.9% 405.10MHz Type=RS41-SG batt=2.5V Details on http://radiosondy.info
G3HRZU27502032022-12-06 08:14:4553.8319-3.54784219247298Clb=-3.9m/s t=-37.9C h=43.3% p=-1.0hPa 405.101 MHz Type=RS41-SG ser=U2750203 Radiosonde
G4VFL-14U27502032022-12-06 08:14:2953.8327-3.54685218267361Clb=-3.6m/s t=-38.4C h=46.6% 405.10MHz Type=RS41-SG Details on http://radiosondy.info
G3HRZU27502032022-12-06 08:14:1453.8334-3.54591214267419Clb=-4.0m/s t=-38.8C h=43.5% p=-1.0hPa 405.101 MHz Type=RS41-SG ser=U2750203 Radiosonde
G4VFL-14U27502032022-12-06 08:14:1353.8335-3.54584215287423Clb=-4.0m/s t=-38.8C h=46.2% 405.10MHz Type=RS41-SG TxOff=7h53m batt=2.6V Details on http://radiosondy.info
G4VFL-14U27502032022-12-06 08:13:5853.8343-3.54488213307483Clb=-3.7m/s t=-39.3C h=47.7% 405.10MHz Type=RS41-SG Details on http://radiosondy.info
G3HRZU27502032022-12-06 08:13:4353.8354-3.54382210287548Clb=-3.7m/s t=-39.8C h=45.5% p=-1.0hPa 405.101 MHz Type=RS41-SG ser=U2750203 Radiosonde
G3HRZU27502032022-12-06 08:13:1253.8373-3.54194207307668Clb=-4.0m/s t=-40.7C h=42.7% p=-1.0hPa 405.101 MHz Type=RS41-SG ser=U2750203 Radiosonde
G4VFL-14U27502032022-12-06 08:12:4553.8394-3.5403205357774Clb=-3.8m/s t=-41.2C h=40.0% 405.10MHz Type=RS41-SG Details on http://radiosondy.info
G3HRZU27502032022-12-06 08:12:4153.8398-3.54001203337794Clb=-3.9m/s t=-41.4C h=36.7% p=-1.0hPa 405.101 MHz Type=RS41-SG ser=U2750203 Radiosonde
G4VFL-14U27502032022-12-06 08:12:2853.8408-3.53931205357843Clb=-3.7m/s t=-41.6C h=37.7% 405.10MHz Type=RS41-SG batt=2.6V Details on http://radiosondy.info
G4VFL-14U27502032022-12-06 08:12:1353.842-3.53842203377904Clb=-3.7m/s t=-42.1C h=37.9% 405.10MHz Type=RS41-SG Details on http://radiosondy.info
G3HRZU27502032022-12-06 08:12:1053.8423-3.53818202357919Clb=-3.8m/s t=-42.2C h=34.8% p=-1.0hPa 405.101 MHz Type=RS41-SG ser=U2750203 Radiosonde
G4VFL-14U27502032022-12-06 08:11:5853.8432-3.5375203357964Clb=-3.9m/s t=-42.5C h=35.5% 405.10MHz Type=RS41-SG Details on http://radiosondy.info
G4VFL-14U27502032022-12-06 08:11:4253.8445-3.53658202398025Clb=-3.9m/s t=-43.0C h=36.4% 405.10MHz Type=RS41-SG batt=2.6V Details on http://radiosondy.info
G3HRZU27502032022-12-06 08:11:3953.8449-3.53636199378041Clb=-4.1m/s t=-43.1C h=33.2% p=-1.0hPa 405.101 MHz Type=RS41-SG ser=U2750203 Radiosonde
G4VFL-14U27502032022-12-06 08:11:2653.846-3.53571200378090Clb=-3.9m/s t=-43.4C h=34.9% 405.10MHz Type=RS41-SG Details on http://radiosondy.info
G4VFL-14U27502032022-12-06 08:11:1053.8474-3.53485202358153Clb=-4.0m/s t=-43.7C h=35.0% 405.10MHz Type=RS41-SG TxOff=7h56m Details on http://radiosondy.info
G3HRZU27502032022-12-06 08:11:0853.8476-3.53468202358165Clb=-3.7m/s t=-43.9C h=32.4% p=-1.0hPa 405.101 MHz Type=RS41-SG ser=U2750203 Radiosonde
G4VFL-14U27502032022-12-06 08:10:5553.8486-3.53402202358212Clb=-3.6m/s t=-44.2C h=36.8% 405.10MHz Type=RS41-SG batt=2.6V Details on http://radiosondy.info
G3HRZU27502032022-12-06 08:10:3753.8501-3.53301202318286Clb=-4.1m/s t=-44.9C h=35.5% p=-1.0hPa 405.101 MHz Type=RS41-SG ser=U2750203 Radiosonde
G3HRZU27502032022-12-06 08:10:0653.8523-3.53134204288405Clb=-3.7m/s t=-45.9C h=39.1% p=-1.0hPa 405.101 MHz Type=RS41-SG ser=U2750203 Radiosonde
G4VFL-14U27502032022-12-06 08:09:4553.8535-3.53042209248484Clb=-4.1m/s t=-46.2C h=42.3% 405.10MHz Type=RS41-SG Details on http://radiosondy.info
G3HRZU27502032022-12-06 08:09:3553.8541-3.52988209228529Clb=-3.8m/s t=-46.7C h=41.2% p=-1.0hPa 405.101 MHz Type=RS41-SG ser=U2750203 Radiosonde
G4VFL-14U27502032022-12-06 08:09:3053.8543-3.52969209208545Clb=-3.9m/s t=-46.7C h=45.9% 405.10MHz Type=RS41-SG Details on http://radiosondy.info
G4VFL-14U27502032022-12-06 08:09:1453.855-3.52897218198610Clb=-3.8m/s t=-47.2C h=45.9% 405.10MHz Type=RS41-SG batt=2.5V Details on http://radiosondy.info
G3HRZU27502032022-12-06 08:09:0453.8554-3.52847215198654Clb=-3.8m/s t=-47.5C h=43.3% p=-1.0hPa 405.101 MHz Type=RS41-SG ser=U2750203 Radiosonde
G4VFL-14U27502032022-12-06 08:08:5953.8556-3.52827216228670Clb=-3.6m/s t=-47.5C h=46.6% 405.10MHz Type=RS41-SG Details on http://radiosondy.info
G4VFL-14U27502032022-12-06 08:08:4353.8563-3.5275209248735Clb=-3.7m/s t=-47.9C h=44.0% 405.10MHz Type=RS41-SG Details on http://radiosondy.info
G3HRZU27502032022-12-06 08:08:3253.8569-3.52697206248779Clb=-4.2m/s t=-48.4C h=36.2% p=-1.0hPa 405.101 MHz Type=RS41-SG ser=U2750203 Radiosonde
G4VFL-14U27502032022-12-06 08:08:2753.8572-3.52673205288799Clb=-3.9m/s t=-48.4C h=37.4% 405.10MHz Type=RS41-SG batt=2.5V Details on http://radiosondy.info
G4VFL-14U27502032022-12-06 08:08:1153.8582-3.52595207308862Clb=-4.0m/s t=-48.6C h=26.0% 405.10MHz Type=RS41-SG TxOff=7h59m Details on http://radiosondy.info
G3HRZU27502032022-12-06 08:08:0153.8589-3.52542206288904Clb=-3.7m/s t=-48.6C h=22.9% p=-1.0hPa 405.101 MHz Type=RS41-SG ser=U2750203 Radiosonde
G4VFL-14U27502032022-12-06 08:07:5553.8593-3.52509206288928Clb=-3.6m/s t=-48.8C h=27.9% 405.10MHz Type=RS41-SG Details on http://radiosondy.info
G3HRZU27502032022-12-06 08:07:3053.8608-3.52369207269030Clb=-3.8m/s t=-49.8C h=27.2% p=-1.0hPa 405.101 MHz Type=RS41-SG ser=U2750203 Radiosonde
G3HRZU27502032022-12-06 08:06:5953.8624-3.52217213229160Clb=-3.9m/s t=-50.8C h=24.0% p=-1.0hPa 405.101 MHz Type=RS41-SG ser=U2750203 Radiosonde
G4VFL-14U27502032022-12-06 08:06:4353.8631-3.5214213229229Clb=-3.9m/s t=-51.3C h=29.2% 405.10MHz Type=RS41-SG TxOff=8h01m batt=2.5V Details on http://radiosondy.info
G3HRZU27502032022-12-06 08:06:2853.8639-3.52077198229295Clb=-3.8m/s t=-51.8C h=24.6% p=-1.0hPa 405.101 MHz Type=RS41-SG ser=U2750203 Radiosonde
G4VFL-14U27502032022-12-06 08:06:2753.8639-3.52073200289299Clb=-4.5m/s t=-51.8C h=28.1% 405.10MHz Type=RS41-SG Details on http://radiosondy.info
G4VFL-14U27502032022-12-06 08:06:1153.865-3.5201199339369Clb=-4.2m/s t=-52.3C h=27.2% 405.10MHz Type=RS41-SG Details on http://radiosondy.info
G3HRZU27502032022-12-06 08:05:5753.8661-3.51955196339432Clb=-4.7m/s t=-52.5C h=23.1% p=-1.0hPa 405.101 MHz Type=RS41-SG ser=U2750203 Radiosonde
G4VFL-14U27502032022-12-06 08:05:5653.8662-3.51951194339437Clb=-5.3m/s t=-52.5C h=26.8% 405.10MHz Type=RS41-SG batt=2.5V Details on http://radiosondy.info
G4VFL-14U27502032022-12-06 08:05:4053.8675-3.51895194339512Clb=-4.8m/s t=-53.0C h=26.7% 405.10MHz Type=RS41-SG Details on http://radiosondy.info
G3HRZU27502032022-12-06 08:05:2653.8686-3.51856191339579Clb=-4.9m/s t=-53.6C h=22.8% p=-1.0hPa 405.101 MHz Type=RS41-SG ser=U2750203 Radiosonde
G4VFL-14U27502032022-12-06 08:05:2553.8687-3.51853194359584Clb=-4.1m/s t=-53.6C h=26.6% 405.10MHz Type=RS41-SG Details on http://radiosondy.info
G4VFL-14U27502032022-12-06 08:05:0953.8702-3.51816191419662Clb=-5.4m/s t=-54.1C h=25.0% 405.10MHz Type=RS41-SG batt=2.6V Details on http://radiosondy.info
G3HRZU27502032022-12-06 08:04:5553.8715-3.51769195399745Clb=-5.5m/s t=-54.3C h=19.2% p=-1.0hPa 405.101 MHz Type=RS41-SG ser=U2750203 Radiosonde
G4VFL-14U27502032022-12-06 08:04:5453.8716-3.51764196419751Clb=-6.2m/s t=-54.3C h=22.9% 405.10MHz Type=RS41-SG Details on http://radiosondy.info
G3HRZU27502032022-12-06 08:04:2453.8744-3.51638194319940Clb=-6.8m/s t=-55.4C h=19.9% p=-1.0hPa 405.101 MHz Type=RS41-SG ser=U2750203 Radiosonde
G3HRZU27502032022-12-06 08:03:5353.8767-3.51541913110141Clb=-7.4m/s t=-56.5C h=18.4% p=-1.0hPa 405.101 MHz Type=RS41-SG ser=U2750203 Radiosonde
G4VFL-14U27502032022-12-06 08:03:4653.8773-3.515221913910187Clb=-6.6m/s t=-56.7C h=21.9% 405.10MHz Type=RS41-SG Details on http://radiosondy.info
G4VFL-14U27502032022-12-06 08:03:3153.8787-3.51471954310286Clb=-7.0m/s t=-57.1C h=21.0% 405.10MHz Type=RS41-SG TxOff=8h04m batt=2.5V Details on http://radiosondy.info
G3HRZU27502032022-12-06 08:03:2253.8796-3.514421874410347Clb=-6.3m/s t=-57.5C h=16.8% p=-1.0hPa 405.101 MHz Type=RS41-SG ser=U2750203 Radiosonde
G4VFL-14U27502032022-12-06 08:03:1553.8804-3.514181943510398Clb=-7.0m/s t=-57.7C h=20.6% 405.10MHz Type=RS41-SG Details on http://radiosondy.info
G4VFL-14U27502032022-12-06 08:02:5953.8817-3.51352022610503Clb=-6.0m/s t=-56.8C h=17.5% 405.10MHz Type=RS41-SG Details on http://radiosondy.info
G3HRZU27502032022-12-06 08:02:5153.8822-3.513152012410556Clb=-6.2m/s t=-56.7C h=13.5% p=-1.0hPa 405.101 MHz Type=RS41-SG ser=U2750203 Radiosonde
G4VFL-14U27502032022-12-06 08:02:4353.8826-3.512812052410609Clb=-6.4m/s t=-56.9C h=17.2% 405.10MHz Type=RS41-SG batt=2.5V Details on http://radiosondy.info
G4VFL-14U27502032022-12-06 08:02:2753.8835-3.512271952610713Clb=-6.4m/s t=-57.8C h=17.2% 405.10MHz Type=RS41-SG Details on http://radiosondy.info
G3HRZU27502032022-12-06 08:02:2053.8839-3.512181832610759Clb=-5.6m/s t=-58.3C h=12.9% p=-1.0hPa 405.101 MHz Type=RS41-SG ser=U2750203 Radiosonde
G4VFL-14U27502032022-12-06 08:02:1053.8847-3.512121823310826Clb=-6.4m/s t=-58.5C h=17.0% 405.10MHz Type=RS41-SG Details on http://radiosondy.info
G4VFL-14U27502032022-12-06 08:01:5453.886-3.512111834110929Clb=-5.7m/s t=-57.7C h=15.2% 405.10MHz Type=RS41-SG batt=2.5V Details on http://radiosondy.info
G3HRZU27502032022-12-06 08:01:4953.8865-3.512061834110961Clb=-7.1m/s t=-57.5C h=10.7% p=-1.0hPa 405.101 MHz Type=RS41-SG ser=U2750203 Radiosonde
G3HRZU27502032022-12-06 08:01:1853.8899-3.51221734411170Clb=-7.3m/s t=-57.7C h=9.3% p=-1.0hPa 405.101 MHz Type=RS41-SG ser=U2750203 Radiosonde
G3HRZU27502032022-12-06 08:00:4753.8933-3.513161764311382Clb=-7.4m/s t=-58.3C h=7.7% p=-1.0hPa 405.101 MHz Type=RS41-SG ser=U2750203 Radiosonde
G4VFL-14U27502032022-12-06 08:00:4453.8935-3.513181773711395Clb=-6.9m/s t=-58.2C h=11.2% 405.10MHz Type=RS41-SG Details on http://radiosondy.info
G4VFL-14U27502032022-12-06 08:00:2853.8949-3.513211742811505Clb=-7.8m/s t=-57.4C h=9.9% 405.10MHz Type=RS41-SG Details on http://radiosondy.info
G3HRZU27502032022-12-06 08:00:1653.8959-3.513451612411594Clb=-7.4m/s t=-57.0C h=6.9% p=-1.0hPa 405.101 MHz Type=RS41-SG ser=U2750203 Radiosonde
G4VFL-14U27502032022-12-06 08:00:1353.896-3.513511652211608Clb=-6.1m/s t=-57.0C h=10.2% 405.10MHz Type=RS41-SG TxOff=8h07m batt=2.5V Details on http://radiosondy.info
G4VFL-14U27502032022-12-06 07:59:5653.8968-3.514181462811728Clb=-5.7m/s t=-58.0C h=10.3% 405.10MHz Type=RS41-SG Details on http://radiosondy.info
G3HRZU27502032022-12-06 07:59:4553.8975-3.514861492611814Clb=-6.2m/s t=-57.4C h=5.7% p=-1.0hPa 405.101 MHz Type=RS41-SG ser=U2750203 Radiosonde
G4VFL-14U27502032022-12-06 07:59:4053.8978-3.515081533111843Clb=-6.7m/s t=-57.4C h=8.8% 405.10MHz Type=RS41-SG Details on http://radiosondy.info
G4VFL-14U27502032022-12-06 07:59:2553.8989-3.515821603311948Clb=-6.9m/s t=-57.9C h=8.2% 405.10MHz Type=RS41-SG batt=2.6V Details on http://radiosondy.info
G3HRZU27502032022-12-06 07:59:1453.8998-3.516341693112032Clb=-5.4m/s t=-57.1C h=4.1% p=-1.0hPa 405.101 MHz Type=RS41-SG ser=U2750203 Radiosonde
G4VFL-14U27502032022-12-06 07:59:1053.9001-3.516411713712053Clb=-6.1m/s t=-57.0C h=7.0% 405.10MHz Type=RS41-SG Details on http://radiosondy.info
G4VFL-14U27502032022-12-06 07:58:5553.9015-3.516491823512145Clb=-6.3m/s t=-57.1C h=6.5% 405.10MHz Type=RS41-SG Details on http://radiosondy.info
G3HRZU27502032022-12-06 07:58:4353.9026-3.516351873012219Clb=-5.1m/s t=-57.5C h=3.4% p=-1.0hPa 405.101 MHz Type=RS41-SG ser=U2750203 Radiosonde
G3HRZU27502032022-12-06 07:58:1253.9044-3.516531742612397Clb=-6.1m/s t=-56.7C h=2.8% p=-1.0hPa 405.101 MHz Type=RS41-SG ser=U2750203 Radiosonde
G3HRZU27502032022-12-06 07:57:4053.9068-3.516691793112576Clb=-6.1m/s t=-57.1C h=2.6% p=-1.0hPa 405.101 MHz Type=RS41-SG ser=U2750203 Radiosonde
G4VFL-14U27502032022-12-06 07:57:3553.9072-3.516711813012605Clb=-5.4m/s t=-57.3C h=5.5% 405.10MHz Type=RS41-SG batt=2.6V Details on http://radiosondy.info
G4VFL-14U27502032022-12-06 07:57:1953.9084-3.516691793012697Clb=-6.0m/s t=-57.3C h=5.4% 405.10MHz Type=RS41-SG Details on http://radiosondy.info
G3HRZU27502032022-12-06 07:57:0953.9091-3.516451913012754Clb=-5.8m/s t=-57.7C h=2.4% p=-1.0hPa 405.101 MHz Type=RS41-SG ser=U2750203 Radiosonde
G4VFL-14U27502032022-12-06 07:57:0353.9095-3.516371823112789Clb=-5.6m/s t=-57.5C h=5.4% 405.10MHz Type=RS41-SG Details on http://radiosondy.info
G4VFL-14U27502032022-12-06 07:56:4753.9108-3.516431743112884Clb=-6.0m/s t=-56.9C h=5.0% 405.10MHz Type=RS41-SG TxOff=8h10m batt=2.5V Details on http://radiosondy.info
G3HRZU27502032022-12-06 07:56:3853.9116-3.516721652812945Clb=-6.1m/s t=-57.1C h=2.2% p=-1.0hPa 405.101 MHz Type=RS41-SG ser=U2750203 Radiosonde
G4VFL-14U27502032022-12-06 07:56:3153.912-3.516911673012981Clb=-6.1m/s t=-56.6C h=4.9% 405.10MHz Type=RS41-SG Details on http://radiosondy.info
G4VFL-14U27502032022-12-06 07:56:1553.9131-3.517481572813080Clb=-6.0m/s t=-55.7C h=4.5% 405.10MHz Type=RS41-SG Details on http://radiosondy.info
G3HRZU27502032022-12-06 07:56:0753.9136-3.517681802613129Clb=-6.3m/s t=-55.8C h=1.8% p=-1.0hPa 405.101 MHz Type=RS41-SG ser=U2750203 Radiosonde
G4VFL-14U27502032022-12-06 07:55:5453.9145-3.517871682413210Clb=-6.0m/s t=-55.8C h=4.4% 405.10MHz Type=RS41-SG batt=2.6V Details on http://radiosondy.info
G3HRZU27502032022-12-06 07:55:3653.9155-3.518181651913325Clb=-6.3m/s t=-55.3C h=1.5% p=-1.0hPa 405.101 MHz Type=RS41-SG ser=U2750203 Radiosonde
G3HRZU27502032022-12-06 07:55:0553.9166-3.518232092013522Clb=-6.0m/s t=-55.2C h=1.5% p=-1.0hPa 405.101 MHz Type=RS41-SG ser=U2750203 Radiosonde
G4VFL-14U27502032022-12-06 07:54:4553.9175-3.517711921913650Clb=-6.2m/s t=-55.3C h=4.1% 405.10MHz Type=RS41-SG Details on http://radiosondy.info
G3HRZU27502032022-12-06 07:54:3453.918-3.5178194913721Clb=-6.2m/s t=-55.5C h=1.6% p=-1.0hPa 405.101 MHz Type=RS41-SG ser=U2750203 Radiosonde
G4VFL-14U27502032022-12-06 07:54:3053.9182-3.517741882213746Clb=-6.1m/s t=-55.5C h=4.3% 405.10MHz Type=RS41-SG Details on http://radiosondy.info
G4VFL-14U27502032022-12-06 07:54:1453.9189-3.518122052613849Clb=-6.0m/s t=-55.0C h=4.1% 405.10MHz Type=RS41-SG batt=2.5V Details on http://radiosondy.info
G3HRZU27502032022-12-06 07:54:0353.9197-3.518191492213919Clb=-6.1m/s t=-54.7C h=1.5% p=-1.0hPa 405.101 MHz Type=RS41-SG ser=U2750203 Radiosonde
G4VFL-14U27502032022-12-06 07:53:5853.9199-3.518261952813951Clb=-6.6m/s t=-54.8C h=4.0% 405.10MHz Type=RS41-SG Details on http://radiosondy.info
G4VFL-14U27502032022-12-06 07:53:4353.9209-3.518271853114045Clb=-5.8m/s t=-54.9C h=4.1% 405.10MHz Type=RS41-SG Details on http://radiosondy.info
G3HRZU27502032022-12-06 07:53:3253.9217-3.517871893714112Clb=-6.3m/s t=-55.3C h=1.6% p=-1.0hPa 405.101 MHz Type=RS41-SG ser=U2750203 Radiosonde
G4VFL-14U27502032022-12-06 07:53:2753.9221-3.517811833314143Clb=-5.9m/s t=-55.2C h=4.2% 405.10MHz Type=RS41-SG TxOff=8h14m batt=2.6V Details on http://radiosondy.info
G4VFL-14U27502032022-12-06 07:53:1153.9235-3.517341863714243Clb=-6.2m/s t=-55.4C h=4.2% 405.10MHz Type=RS41-SG Details on http://radiosondy.info
G3HRZU27502032022-12-06 07:53:0153.9244-3.517381773314305Clb=-6.3m/s t=-55.6C h=1.6% p=-1.0hPa 405.101 MHz Type=RS41-SG ser=U2750203 Radiosonde
G4VFL-14U27502032022-12-06 07:52:5553.9249-3.517411784114343Clb=-6.1m/s t=-55.6C h=4.3% 405.10MHz Type=RS41-SG Details on http://radiosondy.info
G3HRZU27502032022-12-06 07:52:3053.9271-3.517461853014498Clb=-5.9m/s t=-55.6C h=1.6% p=-1.0hPa 405.101 MHz Type=RS41-SG ser=U2750203 Radiosonde
G3HRZU27502032022-12-06 07:51:5953.929-3.516791752214705Clb=-9.7m/s t=-55.5C h=1.6% p=-1.0hPa 405.101 MHz Type=RS41-SG ser=U2750203 Radiosonde
G4VFL-14U27502032022-12-06 07:51:4553.9297-3.517061602414837Clb=-8.9m/s t=-55.7C h=4.3% 405.10MHz Type=RS41-SG batt=2.6V Details on http://radiosondy.info
G4VFL-14U27502032022-12-06 07:51:2953.9306-3.51761733514954Clb=-5.6m/s t=-56.0C h=4.6% 405.10MHz Type=RS41-SG Details on http://radiosondy.info
G3HRZU27502032022-12-06 07:51:2853.9307-3.517641722814967Clb=-9.3m/s t=-56.1C h=1.7% p=-1.0hPa 405.101 MHz Type=RS41-SG ser=U2750203 Radiosonde
G4VFL-14U27502032022-12-06 07:51:1353.932-3.517971753515106Clb=-9.9m/s t=-56.4C h=4.7% 405.10MHz Type=RS41-SG Details on http://radiosondy.info
G4VFL-14U27502032022-12-06 07:50:5753.9334-3.518171862215259Clb=-9.1m/s t=-55.7C h=4.4% 405.10MHz Type=RS41-SG batt=2.6V Details on http://radiosondy.info
G4VFL-14U27502032022-12-06 07:50:4253.9342-3.5181971515396Clb=-9.1m/s t=-56.0C h=4.4% 405.10MHz Type=RS41-SG Details on http://radiosondy.info
G4VFL-14U27502032022-12-06 07:50:2753.9347-3.517971951715496Clb=-8.2m/s t=-56.4C h=4.6% 405.10MHz Type=RS41-SG Details on http://radiosondy.info
G3HRZU27502032022-12-06 07:50:2653.9348-3.517921972015507Clb=-5.9m/s t=-56.5C h=1.7% p=-1.0hPa 405.101 MHz Type=RS41-SG ser=U2750203 Radiosonde
G4VFL-14U27502032022-12-06 07:50:1253.9353-3.517562042215586Clb=-5.5m/s t=-56.7C h=4.7% 405.10MHz Type=RS41-SG TxOff=8h17m batt=2.5V Details on http://radiosondy.info
G4VFL-14U27502032022-12-06 07:49:5753.9359-3.516572213015679Clb=-5.1m/s t=-57.4C h=4.8% 405.10MHz Type=RS41-SG Details on http://radiosondy.info
G3HRZU27502032022-12-06 07:49:5553.9361-3.516362202615696Clb=-6.1m/s t=-57.5C h=1.8% p=-1.0hPa 405.101 MHz Type=RS41-SG ser=U2750203 Radiosonde
G3HRZU27502032022-12-06 07:49:2353.9376-3.514432052815893Clb=-5.5m/s t=-58.1C h=1.9% p=-1.0hPa 405.101 MHz Type=RS41-SG ser=U2750203 Radiosonde
G3HRZU27502032022-12-06 07:48:5253.9395-3.512862003916094Clb=-7.7m/s t=-58.8C h=1.9% p=-1.0hPa 405.101 MHz Type=RS41-SG ser=U2750203 Radiosonde
G4VFL-14U27502032022-12-06 07:48:4453.9402-3.513081403116144Clb=-5.4m/s t=-58.8C h=5.2% 405.10MHz Type=RS41-SG Details on http://radiosondy.info
G4VFL-14U27502032022-12-06 07:48:2853.9413-3.512571572416231Clb=-4.7m/s t=-58.9C h=5.2% 405.10MHz Type=RS41-SG batt=2.6V Details on http://radiosondy.info
G3HRZU27502032022-12-06 07:48:2253.9417-3.512631813316275Clb=-7.1m/s t=-59.1C h=1.9% p=-1.0hPa 405.101 MHz Type=RS41-SG ser=U2750203 Radiosonde
G4VFL-14U27502032022-12-06 07:48:1253.9422-3.512631712616336Clb=-7.5m/s t=-59.1C h=5.3% 405.10MHz Type=RS41-SG Details on http://radiosondy.info
G4VFL-14U27502032022-12-06 07:47:5753.9431-3.512382072816438Clb=-7.7m/s t=-58.8C h=5.0% 405.10MHz Type=RS41-SG Details on http://radiosondy.info
F5RZC-14U27502032022-12-06 07:47:5153.9435-3.51211962616480Clb=-7.1m/s t=-58.8C h=5.0% 405.10MHz Type=RS41-SG batt=2.5V Details on http://radiosondy.info
G3HRZU27502032022-12-06 07:47:5053.9436-3.512071942616487Clb=-6.7m/s t=-58.9C h=1.8% p=-1.0hPa 405.101 MHz Type=RS41-SG ser=U2750203 Radiosonde
GURGE2-15U27502032022-12-06 07:47:4453.944-3.511832142416528Clb=-8.1m/s t=-59.1C h=1.8% p=-1.0hPa 405.101 MHz Type=RS41-SG ser=U2750203 Radiosonde
G4VFL-14U27502032022-12-06 07:47:4153.9441-3.511632172616550Clb=-7.7m/s t=-59.1C h=5.1% 405.10MHz Type=RS41-SG batt=2.5V Details on http://radiosondy.info
F5RZC-14U27502032022-12-06 07:47:3653.9444-3.511362043016587Clb=-9.0m/s t=-59.4C h=5.0% 405.10MHz Type=RS41-SG Details on http://radiosondy.info
G4VFL-14U27502032022-12-06 07:47:2553.9451-3.510942023016671Clb=-9.4m/s t=-59.8C h=5.2% 405.10MHz Type=RS41-SG Details on http://radiosondy.info
F5RZC-14U27502032022-12-06 07:47:2153.9454-3.510751963116700Clb=-6.4m/s t=-60.0C h=5.2% 405.10MHz Type=RS41-SG Details on http://radiosondy.info
G3HRZU27502032022-12-06 07:47:1953.9456-3.51071863516712Clb=-6.5m/s t=-60.1C h=1.9% p=-1.0hPa 405.101 MHz Type=RS41-SG ser=U2750203 Radiosonde
G4VFL-14U27502032022-12-06 07:47:0953.9463-3.510422112216788Clb=-9.5m/s t=-60.7C h=5.6% 405.10MHz Type=RS41-SG Details on http://radiosondy.info
F5RZC-14U27502032022-12-06 07:47:0653.9465-3.510212072416813Clb=-7.4m/s t=-60.8C h=5.8% 405.10MHz Type=RS41-SG TxOff=8h20m batt=2.6V Details on http://radiosondy.info
G4VFL-14U27502032022-12-06 07:46:5453.9471-3.509872152016901Clb=-5.9m/s t=-59.3C h=5.2% 405.10MHz Type=RS41-SG TxOff=8h20m batt=2.5V Details on http://radiosondy.info
G3HRZU27502032022-12-06 07:46:4853.9473-3.509691802216946Clb=-9.5m/s t=-59.5C h=1.8% p=-1.0hPa 405.101 MHz Type=RS41-SG ser=U2750203 Radiosonde
GURGE2-15U27502032022-12-06 07:46:4253.9481-3.510071662617030Clb=-7.1m/s t=-59.4C h=1.8% p=-1.0hPa 405.101 MHz Type=RS41-SG ser=U2750203 Radiosonde
2E0KXT-14U27502032022-12-06 07:46:3053.9485-3.510341533017083Clb=-7.3m/s t=-58.3C calibration 94% 405.10MHz Type=RS41-SG RadioSonde Tracker
G3HRZU27502032022-12-06 07:46:1753.9493-3.511071573517180Clb=-7.8m/s t=-57.6C h=1.5% p=-1.0hPa 405.101 MHz Type=RS41-SG ser=U2750203 Radiosonde
GURGE2-15U27502032022-12-06 07:46:1153.9498-3.511441553717224Clb=-7.0m/s t=-57.8C h=1.5% p=-1.0hPa 405.101 MHz Type=RS41-SG ser=U2750203 Radiosonde
G3HRZU27502032022-12-06 07:45:4653.952-3.512871683517401Clb=-6.6m/s t=-58.6C h=1.6% p=-1.0hPa 405.101 MHz Type=RS41-SG ser=U2750203 Radiosonde
GB3EI-15U27502032022-12-06 07:45:4553.9526-3.512841833517441Clb=-6.7m/s t=-58.8C h=1.6% p=-1.0hPa 405.100 MHz Type=RS41-SG ser=U2750203 Radiosonde
GURGE2-15U27502032022-12-06 07:45:4053.9526-3.512841833517441Clb=-6.7m/s t=-58.8C h=1.6% p=-1.0hPa 405.101 MHz Type=RS41-SG ser=U2750203 Radiosonde
G4VFL-14U27502032022-12-06 07:45:2953.9537-3.513071773717515Clb=-6.3m/s t=-58.8C h=5.0% 405.10MHz Type=RS41-SG Details on http://radiosondy.info
G3HRZU27502032022-12-06 07:45:1553.955-3.513131653517608Clb=-6.7m/s t=-58.7C h=1.6% p=-1.0hPa 405.101 MHz Type=RS41-SG ser=U2750203 Radiosonde
G4VFL-14U27502032022-12-06 07:45:1353.9551-3.51321702417623Clb=-7.0m/s t=-58.5C h=4.8% 405.10MHz Type=RS41-SG batt=2.5V Details on http://radiosondy.info
GURGE2-15U27502032022-12-06 07:45:0953.9554-3.513241842417649Clb=-6.5m/s t=-58.7C h=1.5% p=-1.0hPa 405.101 MHz Type=RS41-SG ser=U2750203 Radiosonde
G4VFL-14U27502032022-12-06 07:44:5853.956-3.513291682017724Clb=-9.4m/s t=-58.8C h=4.9% 405.10MHz Type=RS41-SG Details on http://radiosondy.info
F5RZC-14U27502032022-12-06 07:44:5053.9564-3.513311901717784Clb=-6.7m/s t=-58.8C h=4.9% 405.10MHz Type=RS41-SG Details on http://radiosondy.info
G3HRZU27502032022-12-06 07:44:4453.9566-3.513271831917826Clb=-7.1m/s t=-58.7C h=1.5% p=-1.0hPa 405.101 MHz Type=RS41-SG ser=U2750203 Radiosonde
GB3EI-15U27502032022-12-06 07:44:4353.9567-3.513261821917832Clb=-6.6m/s t=-58.6C h=1.5% p=-1.0hPa 405.100 MHz Type=RS41-SG ser=U2750203 Radiosonde
F5RZC-14U27502032022-12-06 07:44:3553.9569-3.51314225717891Clb=-7.2m/s t=-58.5C h=4.8% 405.10MHz Type=RS41-SG Details on http://radiosondy.info
G4VFL-14U27502032022-12-06 07:44:2753.9571-3.51292187617949Clb=-7.1m/s t=-58.5C h=4.9% 405.10MHz Type=RS41-SG batt=2.6V Details on http://radiosondy.info
F5RZC-14U27502032022-12-06 07:44:2053.9571-3.5129676918001Clb=-7.2m/s t=-58.1C h=4.7% 405.10MHz Type=RS41-SG batt=2.6V Details on http://radiosondy.info
G3HRZU27502032022-12-06 07:44:1353.957-3.5130410718051Clb=-7.2m/s t=-58.1C h=1.5% p=-1.0hPa 405.101 MHz Type=RS41-SG ser=U2750203 Radiosonde
GB3EI-15U27502032022-12-06 07:44:1253.957-3.5130627918058Clb=-7.5m/s t=-58.0C h=1.4% p=-1.0hPa 405.100 MHz Type=RS41-SG ser=U2750203 Radiosonde
G4VFL-14U27502032022-12-06 07:44:1153.957-3.51308361318066Clb=-7.5m/s t=-57.7C h=4.6% 405.10MHz Type=RS41-SG Details on http://radiosondy.info
GURGE2-15U27502032022-12-06 07:44:0753.9569-3.5133278918112Clb=-9.0m/s t=-57.9C h=1.4% p=-1.0hPa 405.101 MHz Type=RS41-SG ser=U2750203 Radiosonde
F5RZC-14U27502032022-12-06 07:44:0553.9569-3.51331792618112Clb=-8.9m/s t=-57.9C h=4.6% 405.10MHz Type=RS41-SG Details on http://radiosondy.info
G4VFL-14U27502032022-12-06 07:43:5553.9568-3.51389842218193Clb=-11.0m/s t=-58.2C h=4.8% 405.10MHz Type=RS41-SG Details on http://radiosondy.info
G3HRZU27502032022-12-06 07:43:4253.9571-3.51511132218297Clb=-9.5m/s t=-58.0C h=1.4% p=-1.0hPa 405.101 MHz Type=RS41-SG ser=U2750203 Radiosonde
GB3EI-15U27502032022-12-06 07:43:4153.9571-3.515191122218305Clb=-7.6m/s t=-58.0C h=1.4% p=-1.0hPa 405.100 MHz Type=RS41-SG ser=U2750203 Radiosonde
GURGE2-15U27502032022-12-06 07:43:3653.9572-3.515761142618350Clb=-8.4m/s t=-58.0C h=1.4% p=-1.0hPa 405.101 MHz Type=RS41-SG ser=U2750203 Radiosonde
GB3EI-15U27502032022-12-06 07:43:1053.9584-3.51811492618538Clb=-6.9m/s t=-58.2C h=1.4% p=-1.0hPa 405.100 MHz Type=RS41-SG ser=U2750203 Radiosonde
GURGE2-15U27502032022-12-06 07:43:0553.9588-3.518411482618584Clb=-7.0m/s t=-58.6C h=1.5% p=-1.0hPa 405.101 MHz Type=RS41-SG ser=U2750203 Radiosonde
2E0KXT-14U27502032022-12-06 07:42:5053.9597-3.519391442818704Clb=-9.5m/s t=-58.3C calibration 94% 405.10MHz Type=RS41-SG batt=2.6V RadioSonde Tracker
G4VFL-14U27502032022-12-06 07:42:4553.96-3.519751422818743Clb=-7.3m/s t=-58.2C h=4.6% 405.10MHz Type=RS41-SG TxOff=8h24m batt=2.6V Details on http://radiosondy.info
G3HRZU27502032022-12-06 07:42:4053.9603-3.520181413118791Clb=-8.4m/s t=-58.3C h=1.4% p=-1.0hPa 405.101 MHz Type=RS41-SG ser=U2750203 Radiosonde
GB3EI-15U27502032022-12-06 07:42:3953.9604-3.520271373118798Clb=-8.0m/s t=-58.4C h=1.4% p=-1.0hPa 405.100 MHz Type=RS41-SG ser=U2750203 Radiosonde
2E0KXT-14U27502032022-12-06 07:42:3453.9606-3.520621352418830Clb=-7.2m/s t=-58.4C calibration 92% 405.10MHz Type=RS41-SG RadioSonde Tracker
G4VFL-14U27502032022-12-06 07:42:3053.9608-3.520891332418863Clb=-9.1m/s t=-58.4C h=4.7% 405.10MHz Type=RS41-SG Details on http://radiosondy.info
G4VFL-14U27502032022-12-06 07:42:1453.9615-3.521931502618997Clb=-8.4m/s t=-58.8C h=4.8% 405.10MHz Type=RS41-SG Details on http://radiosondy.info
G3HRZU27502032022-12-06 07:42:0953.9619-3.522211663119047Clb=-9.0m/s t=-59.1C h=1.4% p=-1.0hPa 405.101 MHz Type=RS41-SG ser=U2750203 Radiosonde
GB3EI-15U27502032022-12-06 07:42:0853.962-3.522241673019055Clb=-8.0m/s t=-59.1C h=1.5% p=-1.0hPa 405.100 MHz Type=RS41-SG ser=U2750203 Radiosonde
GURGE2-15U27502032022-12-06 07:42:0253.9623-3.522451532219109Clb=-9.5m/s t=-59.0C h=1.4% p=-1.0hPa 405.101 MHz Type=RS41-SG ser=U2750203 Radiosonde
G4VFL-14U27502032022-12-06 07:41:5753.9625-3.522641663319147Clb=-8.6m/s t=-59.1C h=4.9% 405.10MHz Type=RS41-SG batt=2.6V Details on http://radiosondy.info
F5RZC-14U27502032022-12-06 07:41:5053.9632-3.522861902819212Clb=0.5m/s t=-59.4C h=5.0% 405.10MHz Type=RS41-SG Details on http://radiosondy.info
G4VFL-14U27502032022-12-06 07:41:4253.9637-3.522821732619271Clb=-11.3m/s t=-59.4C h=4.9% 405.10MHz Type=RS41-SG Details on http://radiosondy.info
G3HRZU27502032022-12-06 07:41:3853.964-3.5231582819321Clb=-10.7m/s t=-59.6C h=1.5% p=-1.0hPa 405.101 MHz Type=RS41-SG ser=U2750203 Radiosonde
GB3EI-15U27502032022-12-06 07:41:3753.9641-3.523041602819332Clb=-10.5m/s t=-59.6C h=1.6% p=-1.0hPa 405.100 MHz Type=RS41-SG ser=U2750203 Radiosonde
F5RZC-14U27502032022-12-06 07:41:3553.9641-3.523081643319342Clb=-9.3m/s t=-59.6C h=5.0% 405.10MHz Type=RS41-SG batt=2.5V Details on http://radiosondy.info
GURGE2-15U27502032022-12-06 07:41:3153.9644-3.523171843019378Clb=-4.7m/s t=-59.7C h=1.5% p=-1.0hPa 405.101 MHz Type=RS41-SG ser=U2750203 Radiosonde
G4VFL-14U27502032022-12-06 07:41:2653.9648-3.523191754119415Clb=-11.5m/s t=-59.4C h=4.9% 405.10MHz Type=RS41-SG Details on http://radiosondy.info
F5RZC-14U27502032022-12-06 07:41:2053.9654-3.52331754319467Clb=-8.2m/s t=-59.3C h=4.9% 405.10MHz Type=RS41-SG Details on http://radiosondy.info
G4VFL-14U27502032022-12-06 07:41:1153.9663-3.523341794619544Clb=-8.4m/s t=-59.4C h=4.8% 405.10MHz Type=RS41-SG batt=2.6V Details on http://radiosondy.info
G3HRZU27502032022-12-06 07:41:0753.9668-3.523371764619586Clb=-7.8m/s t=-59.8C h=1.5% p=-1.0hPa 405.101 MHz Type=RS41-SG ser=U2750203 Radiosonde
GB3EI-15U27502032022-12-06 07:41:0653.9669-3.523391764619594Clb=-8.1m/s t=-59.8C h=1.5% p=-1.0hPa 405.100 MHz Type=RS41-SG ser=U2750203 Radiosonde
F5RZC-14U27502032022-12-06 07:41:0553.9669-3.523381774419594Clb=-8.0m/s t=-59.8C h=5.0% 405.10MHz Type=RS41-SG Details on http://radiosondy.info
GURGE2-15U27502032022-12-06 07:41:0053.9678-3.523451814619650Clb=-8.8m/s t=-60.3C h=1.6% p=-1.0hPa 405.101 MHz Type=RS41-SG ser=U2750203 Radiosonde
G4VFL-14U27502032022-12-06 07:40:5553.9681-3.523421854619674Clb=-8.6m/s t=-60.3C h=5.2% 405.10MHz Type=RS41-SG Details on http://radiosondy.info
G3HRZU27502032022-12-06 07:40:3653.9705-3.522591983919849Clb=-9.0m/s t=-60.8C h=1.6% p=-1.0hPa 405.101 MHz Type=RS41-SG ser=U2750203 Radiosonde
GB3EI-15U27502032022-12-06 07:40:3553.9706-3.522531994119858Clb=-9.2m/s t=-60.8C h=1.6% p=-1.0hPa 405.100 MHz Type=RS41-SG ser=U2750203 Radiosonde
GURGE2-15U27502032022-12-06 07:40:2953.9713-3.52221883719922Clb=-8.9m/s t=-61.0C h=1.6% p=-1.0hPa 405.101 MHz Type=RS41-SG ser=U2750203 Radiosonde
GB3EI-15U27502032022-12-06 07:40:0453.9731-3.5211963020138Clb=-9.6m/s t=-61.5C h=1.6% p=-1.0hPa 405.100 MHz Type=RS41-SG ser=U2750203 Radiosonde
GURGE2-15U27502032022-12-06 07:39:5853.9735-3.520752062620195Clb=-9.1m/s t=-61.4C h=1.7% p=-1.0hPa 405.101 MHz Type=RS41-SG ser=U2750203 Radiosonde
G4VFL-14U27502032022-12-06 07:39:4353.9745-3.519961964120331Clb=-9.6m/s t=-61.4C h=5.3% 405.10MHz Type=RS41-SG Details on http://radiosondy.info
G3HRZU27502032022-12-06 07:39:3353.9754-3.519651884420427Clb=-9.2m/s t=-61.7C h=1.7% p=-1.0hPa 405.101 MHz Type=RS41-SG ser=U2750203 Radiosonde
GB3EI-15U27502032022-12-06 07:39:3253.9755-3.519631864620436Clb=-9.7m/s t=-61.8C h=1.6% p=-1.0hPa 405.100 MHz Type=RS41-SG ser=U2750203 Radiosonde
G4VFL-14U27502032022-12-06 07:39:2853.976-3.519581824820474Clb=-8.9m/s t=-61.9C h=5.4% 405.10MHz Type=RS41-SG TxOff=8h28m batt=2.6V Details on http://radiosondy.info
2E0KXT-14U27502032022-12-06 07:39:2653.9763-3.519571814320492Clb=-9.2m/s t=-62.0C calibration 92% 405.10MHz Type=RS41-SG RadioSonde Tracker
G4VFL-14U27502032022-12-06 07:39:1253.978-3.519431883720625Clb=-10.2m/s t=-62.4C h=5.6% 405.10MHz Type=RS41-SG Details on http://radiosondy.info
2E0KXT-14U27502032022-12-06 07:39:0653.9785-3.519421714320682Clb=-9.7m/s t=-62.6C calibration 90% 405.10MHz Type=RS41-SG batt=2.5V RadioSonde Tracker
G3HRZU27502032022-12-06 07:39:0253.9788-3.519531723320721Clb=-10.3m/s t=-62.8C h=1.8% p=-1.0hPa 405.101 MHz Type=RS41-SG ser=U2750203 Radiosonde
GB3EI-15U27502032022-12-06 07:39:0153.9789-3.519551703720731Clb=-10.1m/s t=-62.8C h=1.7% p=-1.0hPa 405.100 MHz Type=RS41-SG ser=U2750203 Radiosonde
GURGE2-15U27502032022-12-06 07:38:5653.9794-3.519711644320778Clb=-9.5m/s t=-62.7C h=1.8% p=-1.0hPa 405.101 MHz Type=RS41-SG ser=U2750203 Radiosonde
F5RZC-14U27502032022-12-06 07:38:5153.98-3.520051554420825Clb=-8.7m/s t=-62.4C h=5.7% 405.10MHz Type=RS41-SG TxOff=8h28m batt=2.5V Details on http://radiosondy.info
2E0KXT-14U27502032022-12-06 07:38:4453.9806-3.520541604420891Clb=-10.1m/s t=-62.7C calibration 90% 405.10MHz Type=RS41-SG RadioSonde Tracker
G4VFL-14U27502032022-12-06 07:38:4053.981-3.520831574420928Clb=-9.3m/s t=-62.8C h=5.8% 405.10MHz Type=RS41-SG batt=2.5V Details on http://radiosondy.info
F5RZC-14U27502032022-12-06 07:38:3653.9814-3.521171514420967Clb=-10.0m/s t=-62.4C h=5.6% 405.10MHz Type=RS41-SG Details on http://radiosondy.info
G3HRZU27502032022-12-06 07:38:3153.9819-3.521651524321011Clb=-8.3m/s t=-62.5C h=1.7% p=-1.0hPa 405.101 MHz Type=RS41-SG ser=U2750203 Radiosonde
GB3EI-15U27502032022-12-06 07:38:3053.982-3.521731524321020Clb=-8.9m/s t=-62.5C h=1.7% p=-1.0hPa 405.100 MHz Type=RS41-SG ser=U2750203 Radiosonde
2E0KXT-14U27502032022-12-06 07:38:2853.9822-3.52191554421040Clb=-12.2m/s t=-62.5C calibration 88% 405.10MHz Type=RS41-SG RadioSonde Tracker
GURGE2-15U27502032022-12-06 07:38:2553.9825-3.522161524421069Clb=-10.3m/s t=-62.6C h=1.7% p=-1.0hPa 405.101 MHz Type=RS41-SG ser=U2750203 Radiosonde
F5RZC-14U27502032022-12-06 07:38:2153.9829-3.522511545021107Clb=-9.2m/s t=-62.6C h=5.8% 405.10MHz Type=RS41-SG Details on http://radiosondy.info
2E0KXT-14U27502032022-12-06 07:38:1353.9837-3.523231535221182Clb=-10.0m/s t=-62.9C calibration 84% 405.10MHz Type=RS41-SG batt=2.5V RadioSonde Tracker
G4VFL-14U27502032022-12-06 07:38:0953.9842-3.523551675421221Clb=-8.7m/s t=-62.8C h=5.8% 405.10MHz Type=RS41-SG Details on http://radiosondy.info
F5RZC-14U27502032022-12-06 07:38:0653.9846-3.523661735621249Clb=-10.5m/s t=-62.6C h=5.7% 405.10MHz Type=RS41-SG batt=2.6V Details on http://radiosondy.info
G3HRZU27502032022-12-06 07:38:0053.9854-3.523911644821306Clb=-9.8m/s t=-62.6C h=1.7% p=-1.0hPa 405.101 MHz Type=RS41-SG ser=U2750203 Radiosonde
GB3EI-15U27502032022-12-06 07:37:5953.9855-3.523961675021316Clb=-10.8m/s t=-62.7C h=1.7% p=-1.0hPa 405.100 MHz Type=RS41-SG ser=U2750203 Radiosonde
2E0KXT-14U27502032022-12-06 07:37:5753.9857-3.524031715921338Clb=-9.2m/s calibration 72% 405.10MHz Type=RS41-SG RadioSonde Tracker
G4VFL-14U27502032022-12-06 07:37:5453.9862-3.524161715721369Clb=-9.4m/s t=-62.6C h=5.7% 405.10MHz Type=RS41-SG batt=2.5V Details on http://radiosondy.info
2E0KXT-14U27502032022-12-06 07:37:4153.9881-3.524821765721503Clb=-10.3m/s calibration 56% Type=RS41-SG RadioSonde Tracker
G3HRZU27502032022-12-06 07:37:2953.9897-3.525311706121612Clb=-9.7m/s t=-63.1C h=1.8% p=-1.0hPa 405.101 MHz Type=RS41-SG ser=U2750203 Radiosonde
GB3EI-15U27502032022-12-06 07:37:2853.9899-3.525361716321621Clb=-10.4m/s t=-63.2C h=1.8% p=-1.0hPa 405.100 MHz Type=RS41-SG ser=U2750203 Radiosonde
2E0KXT-14U27502032022-12-06 07:37:2553.9904-3.52551696521645Clb=-9.2m/s calibration 47% Type=RS41 batt=2.6V RadioSonde Tracker
GURGE2-15U27502032022-12-06 07:37:2353.9907-3.525631635721659Clb=-9.9m/s t=-63.1C h=-1.0% p=-1.0hPa 405.101 MHz Type=RS41-SG ser=U2750203 Radiosonde
2E0KXT-14U27502032022-12-06 07:37:0953.993-3.526551626521748Clb=4.1m/s calibration 33% Type=RS41 RadioSonde Tracker
G3HRZU27502032022-12-06 07:36:5853.9947-3.527281706721686Clb=5.5m/s t=-63.1C h=1.7% p=-1.0hPa 405.101 MHz Type=RS41-SG ser=U2750203 Radiosonde
GB3EI-15U27502032022-12-06 07:36:5753.9948-3.527321726521680Clb=5.6m/s t=-63.1C h=1.7% p=-1.0hPa 405.100 MHz Type=RS41-SG ser=U2750203 Radiosonde
2E0KXT-14U27502032022-12-06 07:36:5353.9955-3.52751685921658Clb=5.1m/s calibration 17% Type=RS41 RadioSonde Tracker
GURGE2-15U27502032022-12-06 07:36:5253.9958-3.527621675721647Clb=5.9m/s t=-63.1C h=-1.0% p=-1.0hPa 405.101 MHz Type=RS41-SG ser=U2750203 Radiosonde
2E0KXT-14U27502032022-12-06 07:36:3753.9978-3.528151715621569Clb=6.2m/s calibration 7% Type=RS41 batt=2.5V RadioSonde Tracker
G4VFL-14U27502032022-12-06 07:36:3053.9987-3.528541725921530Clb=4.6m/s t=-62.9C h=5.9% 405.10MHz Type=RS41-SG Details on http://radiosondy.info
G3HRZU27502032022-12-06 07:36:2753.9991-3.528581815621514Clb=4.4m/s t=-62.9C h=1.7% p=-1.0hPa 405.101 MHz Type=RS41-SG ser=U2750203 Radiosonde
GB3EI-15U27502032022-12-06 07:36:2653.9993-3.528571825721509Clb=5.1m/s t=-62.9C h=1.7% p=-1.0hPa 405.100 MHz Type=RS41-SG ser=U2750203 Radiosonde
GURGE2-15U27502032022-12-06 07:36:2154.0002-3.528581716121476Clb=6.7m/s t=-62.8C h=-1.0% p=-1.0hPa 405.101 MHz Type=RS41 ser=U2750203 Radiosonde
G4VFL-14U27502032022-12-06 07:36:1354.0012-3.528981705921436Clb=4.7m/s t=-62.6C h=5.8% 405.10MHz Type=RS41-SG Details on http://radiosondy.info
G4VFL-14U27502032022-12-06 07:35:5754.0035-3.529731725621348Clb=4.9m/s t=-62.3C h=5.7% 405.10MHz Type=RS41-SG TxPastBurst=8h30m batt=2.6V Details on http://radiosondy.info
G3HRZU27502032022-12-06 07:35:5654.0036-3.529771695421342Clb=5.9m/s t=-62.4C h=1.6% p=-1.0hPa 405.101 MHz Type=RS41-SG ser=U2750203 Radiosonde
GB3EI-15U27502032022-12-06 07:35:5554.0038-3.529811695721336Clb=5.2m/s t=-62.4C h=1.7% p=-1.0hPa 405.100 MHz Type=RS41-SG ser=U2750203 Radiosonde
F5RZC-14U27502032022-12-06 07:35:5154.0044-3.529981715621314Clb=6.3m/s t=-62.4C h=5.7% 405.10MHz Type=RS41-SG Details on http://radiosondy.info
G4VFL-14U27502032022-12-06 07:35:4154.0057-3.530361735421261Clb=5.4m/s t=-62.2C h=5.6% 405.10MHz Type=RS41-SG Details on http://radiosondy.info
F5RZC-14U27502032022-12-06 07:35:3654.0064-3.530621645621234Clb=4.3m/s t=-62.2C h=5.6% 405.10MHz Type=RS41-SG Details on http://radiosondy.info
G3HRZU27502032022-12-06 07:35:2554.0078-3.531141606121174Clb=4.8m/s t=-62.6C h=1.7% p=-1.0hPa 405.101 MHz Type=RS41-SG ser=U2750203 Radiosonde
GB3EI-15U27502032022-12-06 07:35:2454.008-3.531231576321169Clb=5.2m/s t=-62.6C h=1.7% p=-1.0hPa 405.100 MHz Type=RS41-SG ser=U2750203 Radiosonde
F5RZC-14U27502032022-12-06 07:35:2154.0084-3.531551564821153Clb=4.3m/s t=-62.6C h=5.8% 405.10MHz Type=RS41-SG batt=2.5V Details on http://radiosondy.info
G4VFL-14U27502032022-12-06 07:35:0954.0097-3.532371624621091Clb=4.8m/s t=-62.4C h=5.7% 405.10MHz Type=RS41-SG batt=2.6V Details on http://radiosondy.info
F5RZC-14U27502032022-12-06 07:35:0654.0101-3.532561634321075Clb=4.4m/s t=-62.3C h=5.7% 405.10MHz Type=RS41-SG Details on http://radiosondy.info
G3HRZU27502032022-12-06 07:34:5454.0114-3.533481545021006Clb=6.0m/s t=-62.2C h=1.7% p=-1.0hPa 405.101 MHz Type=RS41-SG ser=U2750203 Radiosonde
GB3EI-15U27502032022-12-06 07:34:5354.0114-3.533481545021006Clb=6.0m/s t=-62.2C h=1.7% p=-1.0hPa 405.100 MHz Type=RS41-SG ser=U2750203 Radiosonde
G3HRZU27502032022-12-06 07:34:2354.0146-3.5361574320852Clb=4.6m/s t=-62.4C h=1.7% p=-1.0hPa 405.101 MHz Type=RS41-SG ser=U2750203 Radiosonde
GB3EI-15U27502032022-12-06 07:34:2254.0147-3.536081564320848Clb=4.4m/s t=-62.4C h=1.7% p=-1.0hPa 405.100 MHz Type=RS41-SG ser=U2750203 Radiosonde
G3HRZU27502032022-12-06 07:33:5254.0178-3.537621693920696Clb=5.7m/s t=-62.7C h=1.8% p=-1.0hPa 405.101 MHz Type=RS41-SG ser=U2750203 Radiosonde
GB3EI-15U27502032022-12-06 07:33:5154.0179-3.537651734120691Clb=4.0m/s t=-62.7C h=1.7% p=-1.0hPa 405.100 MHz Type=RS41-SG ser=U2750203 Radiosonde
G4VFL-14U27502032022-12-06 07:33:4554.0184-3.537641834420666Clb=4.1m/s t=-62.5C h=5.8% 405.10MHz Type=RS41-SG Details on http://radiosondy.info
G4VFL-14U27502032022-12-06 07:33:2854.0202-3.537541845020580Clb=5.1m/s t=-62.2C h=5.7% 405.10MHz Type=RS41-SG batt=2.5V Details on http://radiosondy.info
G3HRZU27502032022-12-06 07:33:2154.0211-3.53761795220540Clb=5.7m/s t=-62.2C h=1.7% p=-1.0hPa 405.101 MHz Type=RS41-SG ser=U2750203 Radiosonde
GB3EI-15U27502032022-12-06 07:33:2054.0213-3.537591825620536Clb=4.5m/s t=-62.2C h=1.7% p=-1.0hPa 405.100 MHz Type=RS41-SG ser=U2750203 Radiosonde
G4VFL-14U27502032022-12-06 07:33:1254.0222-3.537461824620501Clb=5.7m/s t=-62.1C h=5.8% 405.10MHz Type=RS41-SG Details on http://radiosondy.info
G4VFL-14U27502032022-12-06 07:32:5754.0239-3.537081843520427Clb=4.6m/s t=-61.8C h=5.5% 405.10MHz Type=RS41-SG Details on http://radiosondy.info
F5RZC-14U27502032022-12-06 07:32:5154.0244-3.537051873320397Clb=5.0m/s t=-61.6C h=5.5% 405.10MHz Type=RS41-SG Details on http://radiosondy.info
G3HRZU27502032022-12-06 07:32:5054.0246-3.536991943720388Clb=5.1m/s t=-61.7C h=1.6% p=-1.0hPa 405.101 MHz Type=RS41-SG ser=U2750203 Radiosonde
GB3EI-15U27502032022-12-06 07:32:4954.0247-3.536951973320383Clb=5.4m/s t=-61.7C h=1.6% p=-1.0hPa 405.100 MHz Type=RS41-SG ser=U2750203 Radiosonde
G4VFL-14U27502032022-12-06 07:32:4154.0253-3.536632003120348Clb=5.6m/s t=-61.6C h=5.4% 405.10MHz Type=RS41-SG TxPastBurst=8h30m batt=2.6V Details on http://radiosondy.info
F5RZC-14U27502032022-12-06 07:32:3654.0256-3.536432043120324Clb=4.2m/s t=-61.8C h=5.5% 405.10MHz Type=RS41-SG TxPastBurst=8h30m batt=2.6V Details on http://radiosondy.info
G4VFL-14U27502032022-12-06 07:32:2554.0264-3.535692102620272Clb=4.5m/s t=-61.8C h=5.6% 405.10MHz Type=RS41-SG Details on http://radiosondy.info
F5RZC-14U27502032022-12-06 07:32:2154.0266-3.535512002620252Clb=5.3m/s t=-61.6C h=5.5% 405.10MHz Type=RS41-SG Details on http://radiosondy.info
G3HRZU27502032022-12-06 07:32:1954.0268-3.53542062420237Clb=4.4m/s t=-61.6C h=1.6% p=-1.0hPa 405.101 MHz Type=RS41-SG ser=U2750203 Radiosonde
GB3EI-15U27502032022-12-06 07:32:1854.0268-3.535362052620233Clb=5.1m/s t=-61.6C h=1.6% p=-1.0hPa 405.100 MHz Type=RS41-SG ser=U2750203 Radiosonde
G4VFL-14U27502032022-12-06 07:32:0954.0273-3.534922053020193Clb=4.5m/s t=-61.4C h=5.4% 405.10MHz Type=RS41-SG Details on http://radiosondy.info
F5RZC-14U27502032022-12-06 07:32:0654.0275-3.53481983720179Clb=5.3m/s t=-61.5C h=5.5% 405.10MHz Type=RS41-SG Details on http://radiosondy.info
G4VFL-14U27502032022-12-06 07:31:5454.0283-3.534271923120120Clb=5.1m/s t=-61.4C h=5.4% 405.10MHz Type=RS41-SG batt=2.5V Details on http://radiosondy.info
G3HRZU27502032022-12-06 07:31:4754.0288-3.533982073720086Clb=5.4m/s t=-61.4C h=1.6% p=-1.0hPa 405.101 MHz Type=RS41-SG ser=U2750203 Radiosonde
G3HRZU27502032022-12-06 07:31:1654.0308-3.532471983319935Clb=4.7m/s t=-60.9C h=1.6% p=-1.0hPa 405.101 MHz Type=RS41-SG ser=U2750203 Radiosonde
G3HRZU27502032022-12-06 07:30:4554.0337-3.531271904419779Clb=4.6m/s t=-60.4C h=1.5% p=-1.0hPa 405.101 MHz Type=RS41-SG ser=U2750203 Radiosonde
GB3EI-15U27502032022-12-06 07:30:4454.0338-3.531241884619774Clb=5.1m/s t=-60.4C h=1.5% p=-1.0hPa 405.100 MHz Type=RS41-SG ser=U2750203 Radiosonde
G4VFL-14U27502032022-12-06 07:30:4254.034-3.531181874419765Clb=3.4m/s t=-60.3C h=5.2% 405.10MHz Type=RS41-SG Details on http://radiosondy.info
G4VFL-14U27502032022-12-06 07:30:2754.0357-3.530911814619694Clb=4.9m/s t=-60.1C h=5.1% 405.10MHz Type=RS41-SG Details on http://radiosondy.info
G3HRZU27502032022-12-06 07:30:1554.0372-3.531071744419632Clb=3.4m/s t=-60.0C h=1.5% p=-1.0hPa 405.101 MHz Type=RS41-SG ser=U2750203 Radiosonde
G4VFL-14U27502032022-12-06 07:30:1154.0375-3.531091804119618Clb=4.0m/s t=-59.9C h=5.1% 405.10MHz Type=RS41-SG batt=2.6V Details on http://radiosondy.info
G4VFL-14U27502032022-12-06 07:29:5554.0391-3.531291773719546Clb=5.2m/s t=-59.3C h=4.9% 405.10MHz Type=RS41-SG Details on http://radiosondy.info
F5RZC-14U27502032022-12-06 07:29:5054.0396-3.531341723919520Clb=4.3m/s t=-59.4C h=5.0% 405.10MHz Type=RS41-SG batt=2.5V Details on http://radiosondy.info
G8OUX-14U27502032022-12-06 07:29:4554.04-3.531351774319497Clb=5.0m/s calibration 13% Type=RS41 batt=2.5V Details on http://radiosondy.info
G3HRZU27502032022-12-06 07:29:4354.0403-3.531371784419486Clb=5.2m/s t=-59.4C h=1.4% p=-1.0hPa 405.101 MHz Type=RS41-SG ser=U2750203 Radiosonde
GB3EI-15U27502032022-12-06 07:29:4254.0404-3.531371814319482Clb=4.5m/s t=-59.4C h=1.4% p=-1.0hPa 405.100 MHz Type=RS41-SG ser=U2750203 Radiosonde
G4VFL-14U27502032022-12-06 07:29:4054.0406-3.531371783519473Clb=5.2m/s t=-59.3C h=4.8% 405.10MHz Type=RS41-SG Details on http://radiosondy.info
F5RZC-14U27502032022-12-06 07:29:3554.041-3.531421793519449Clb=3.7m/s t=-59.4C h=4.8% 405.10MHz Type=RS41-SG Details on http://radiosondy.info
G4VFL-14U27502032022-12-06 07:29:2554.0418-3.53161662819400Clb=5.3m/s t=-59.9C h=5.0% 405.10MHz Type=RS41-SG TxPastBurst=8h30m batt=2.5V Details on http://radiosondy.info
F5RZC-14U27502032022-12-06 07:29:2054.0422-3.531791662619374Clb=5.6m/s t=-60.0C h=5.1% 405.10MHz Type=RS41-SG Details on http://radiosondy.info
G3HRZU27502032022-12-06 07:29:1254.0426-3.532051502619334Clb=6.0m/s t=-60.0C h=1.5% p=-1.0hPa 405.101 MHz Type=RS41-SG ser=U2750203 Radiosonde
GB3EI-15U27502032022-12-06 07:29:1154.0427-3.532111523019329Clb=5.1m/s t=-60.0C h=1.5% p=-1.0hPa 405.100 MHz Type=RS41-SG ser=U2750203 Radiosonde
G4VFL-14U27502032022-12-06 07:29:1054.0428-3.532171573019324Clb=4.8m/s t=-59.9C h=5.1% 405.10MHz Type=RS41-SG Details on http://radiosondy.info
F5RZC-14U27502032022-12-06 07:29:0554.0432-3.532321673119300Clb=4.5m/s t=-59.8C h=5.0% 405.10MHz Type=RS41-SG batt=2.5V Details on http://radiosondy.info
G4VFL-14U27502032022-12-06 07:28:5454.0439-3.532831623519246Clb=4.8m/s t=-59.8C h=5.0% 405.10MHz Type=RS41-SG Details on http://radiosondy.info
G3HRZU27502032022-12-06 07:28:4154.0448-3.533441572619174Clb=5.4m/s t=-59.7C h=1.5% p=-1.0hPa 405.101 MHz Type=RS41-SG ser=U2750203 Radiosonde
GB3EI-15U27502032022-12-06 07:28:4054.0448-3.533441572619174Clb=5.4m/s t=-59.7C h=1.5% p=-1.0hPa 405.100 MHz Type=RS41-SG ser=U2750203 Radiosonde
G3HRZU27502032022-12-06 07:28:1054.0466-3.534641612419016Clb=4.4m/s t=-59.1C h=1.5% p=-1.0hPa 405.101 MHz Type=RS41-SG ser=U2750203 Radiosonde
GB3EI-15U27502032022-12-06 07:28:0954.0467-3.534671612419011Clb=5.1m/s t=-59.0C h=1.5% p=-1.0hPa 405.100 MHz Type=RS41-SG ser=U2750203 Radiosonde
G4VFL-14U27502032022-12-06 07:27:4554.0477-3.536261082618887Clb=4.5m/s t=-58.5C h=4.8% 405.10MHz Type=RS41-SG batt=2.6V Details on http://radiosondy.info
G3HRZU27502032022-12-06 07:27:3954.0479-3.536771312418857Clb=4.3m/s t=-58.5C h=1.4% p=-1.0hPa 405.101 MHz Type=RS41-SG ser=U2750203 Radiosonde
GB3EI-15U27502032022-12-06 07:27:3854.0479-3.536841362218852Clb=5.8m/s t=-58.4C h=1.4% p=-1.0hPa 405.100 MHz Type=RS41-SG ser=U2750203 Radiosonde
G4VFL-14U27502032022-12-06 07:27:2954.0483-3.537671312818809Clb=5.7m/s t=-58.1C h=4.7% 405.10MHz Type=RS41-SG Details on http://radiosondy.info
G4VFL-14U27502032022-12-06 07:27:1454.049-3.538911393018735Clb=4.3m/s t=-58.1C h=4.6% 405.10MHz Type=RS41-SG Details on http://radiosondy.info
G3HRZU27502032022-12-06 07:27:0854.0494-3.539351452618705Clb=4.1m/s t=-58.3C h=1.4% p=-1.0hPa 405.101 MHz Type=RS41-SG ser=U2750203 Radiosonde
GB3EI-15U27502032022-12-06 07:27:0754.0494-3.539411442818700Clb=5.9m/s t=-58.3C h=1.4% p=-1.0hPa 405.100 MHz Type=RS41-SG ser=U2750203 Radiosonde
G4VFL-14U27502032022-12-06 07:26:5854.0499-3.540141543118655Clb=5.7m/s t=-58.3C h=4.7% 405.10MHz Type=RS41-SG batt=2.7V Details on http://radiosondy.info
F5RZC-14U27502032022-12-06 07:26:5054.0505-3.540581583018618Clb=4.5m/s t=-58.5C h=4.8% 405.10MHz Type=RS41-SG Details on http://radiosondy.info
G4VFL-14U27502032022-12-06 07:26:4254.0511-3.541011463018580Clb=3.9m/s t=-58.5C h=4.8% 405.10MHz Type=RS41-SG Details on http://radiosondy.info
G3HRZU27502032022-12-06 07:26:3754.0514-3.54141443118557Clb=5.1m/s t=-58.5C h=1.5% p=-1.0hPa 405.101 MHz Type=RS41-SG ser=U2750203 Radiosonde
GB3EI-15U27502032022-12-06 07:26:3654.0515-3.541551442818548Clb=5.6m/s t=-58.4C h=1.4% p=-1.0hPa 405.100 MHz Type=RS41-SG ser=U2750203 Radiosonde
F5RZC-14U27502032022-12-06 07:26:3554.0515-3.541551453018548Clb=5.5m/s t=-58.4C h=4.7% 405.10MHz Type=RS41-SG Details on http://radiosondy.info
G4VFL-14U27502032022-12-06 07:26:2754.052-3.54211363018511Clb=5.4m/s t=-58.1C h=4.6% 405.10MHz Type=RS41-SG Details on http://radiosondy.info
F5RZC-14U27502032022-12-06 07:26:2054.0523-3.542781393318478Clb=4.7m/s t=-58.2C h=4.6% 405.10MHz Type=RS41-SG TxPastBurst=8h30m batt=2.6V Details on http://radiosondy.info
G4VFL-14U27502032022-12-06 07:26:1154.0528-3.543661243018434Clb=5.3m/s t=-58.6C h=4.9% 405.10MHz Type=RS41-SG TxPastBurst=8h30m batt=2.6V Details on http://radiosondy.info
G3HRZU27502032022-12-06 07:26:0654.053-3.544281293118410Clb=5.2m/s t=-58.5C h=1.5% p=-1.0hPa 405.101 MHz Type=RS41-SG ser=U2750203 Radiosonde
GB3EI-15U27502032022-12-06 07:26:0554.0531-3.544491272818399Clb=4.0m/s t=-58.4C h=1.5% p=-1.0hPa 405.100 MHz Type=RS41-SG ser=U2750203 Radiosonde
G4VFL-14U27502032022-12-06 07:25:5554.0535-3.545271331918357Clb=5.0m/s t=-58.1C h=4.6% 405.10MHz Type=RS41-SG Details on http://radiosondy.info
G3HRZU27502032022-12-06 07:25:3554.054-3.546941131918259Clb=5.6m/s t=-58.2C h=1.5% p=-1.0hPa 405.101 MHz Type=RS41-SG ser=U2750203 Radiosonde
GB3EI-15U27502032022-12-06 07:25:3454.054-3.547091061518250Clb=4.3m/s t=-58.1C h=1.5% p=-1.0hPa 405.100 MHz Type=RS41-SG ser=U2750203 Radiosonde
G3HRZU27502032022-12-06 07:25:0454.054-3.54867263218101Clb=3.9m/s t=-58.3C h=1.5% p=-1.0hPa 405.101 MHz Type=RS41-SG ser=U2750203 Radiosonde
GB3EI-15U27502032022-12-06 07:25:0354.054-3.54867263218101Clb=3.9m/s t=-58.3C h=1.5% p=-1.0hPa 405.100 MHz Type=RS41-SG ser=U2750203 Radiosonde
G3HRZU27502032022-12-06 07:24:3354.0546-3.548112121917953Clb=5.9m/s t=-59.0C h=1.6% p=-1.0hPa 405.101 MHz Type=RS41-SG ser=U2750203 Radiosonde
G4VFL-14U27502032022-12-06 07:24:3154.0547-3.548062092017948Clb=4.4m/s t=-59.0C h=4.9% 405.10MHz Type=RS41-SG Details on http://radiosondy.info
G4VFL-14U27502032022-12-06 07:24:1654.0554-3.54762012417879Clb=3.4m/s t=-59.3C h=5.0% 405.10MHz Type=RS41-SG batt=2.7V Details on http://radiosondy.info
G3HRZU27502032022-12-06 07:24:0254.0562-3.547371802817810Clb=3.8m/s t=-59.2C h=1.6% p=-1.0hPa 405.101 MHz Type=RS41-SG ser=U2750203 Radiosonde
GB3EI-15U27502032022-12-06 07:24:0154.0563-3.547371842617806Clb=5.1m/s t=-59.1C h=1.6% p=-1.0hPa 405.100 MHz Type=RS41-SG ser=U2750203 Radiosonde
G4VFL-14U27502032022-12-06 07:24:0054.0563-3.547371852817806Clb=5.0m/s t=-59.1C h=5.0% 405.10MHz Type=RS41-SG Details on http://radiosondy.info
F5RZC-14U27502032022-12-06 07:23:5054.057-3.547271762817756Clb=5.7m/s t=-58.9C h=5.0% 405.10MHz Type=RS41-SG Details on http://radiosondy.info
G4VFL-14U27502032022-12-06 07:23:4454.0574-3.547261883117727Clb=3.7m/s t=-59.0C h=5.0% 405.10MHz Type=RS41-SG Details on http://radiosondy.info
F5RZC-14U27502032022-12-06 07:23:3554.058-3.547211743517684Clb=5.4m/s t=-58.9C h=5.0% 405.10MHz Type=RS41-SG batt=2.7V Details on http://radiosondy.info
G3HRZU27502032022-12-06 07:23:3154.0584-3.547311703317659Clb=5.9m/s t=-58.8C h=1.5% p=-1.0hPa 405.101 MHz Type=RS41-SG ser=U2750203 Radiosonde
GB3EI-15U27502032022-12-06 07:23:2954.0585-3.547341693317654Clb=4.0m/s t=-58.7C h=1.6% p=-1.0hPa 405.100 MHz Type=RS41-SG ser=U2750203 Radiosonde
G4VFL-14U27502032022-12-06 07:23:2754.0587-3.547381733717645Clb=5.6m/s t=-58.6C h=4.9% 405.10MHz Type=RS41-SG batt=2.6V Details on http://radiosondy.info
F5RZC-14U27502032022-12-06 07:23:2054.0593-3.547471774117613Clb=4.1m/s t=-58.7C h=4.8% 405.10MHz Type=RS41-SG Details on http://radiosondy.info
G4VFL-14U27502032022-12-06 07:23:1154.0602-3.547711854417571Clb=4.7m/s t=-58.6C h=4.9% 405.10MHz Type=RS41-SG Details on http://radiosondy.info
F5RZC-14U27502032022-12-06 07:23:0554.0608-3.547691733017543Clb=4.8m/s t=-58.7C h=4.9% 405.10MHz Type=RS41-SG Details on http://radiosondy.info
G3HRZU27502032022-12-06 07:22:5954.0615-3.547881724417514Clb=4.5m/s t=-59.0C h=1.6% p=-1.0hPa 405.101 MHz Type=RS41-SG ser=U2750203 Radiosonde
GB3EI-15U27502032022-12-06 07:22:5854.0616-3.54791754417509Clb=4.2m/s t=-59.0C h=1.6% p=-1.0hPa 405.100 MHz Type=RS41-SG ser=U2750203 Radiosonde
G4VFL-14U27502032022-12-06 07:22:5554.062-3.547921793917496Clb=4.7m/s t=-58.9C h=4.9% 405.10MHz Type=RS41-SG Details on http://radiosondy.info
G3HRZU27502032022-12-06 07:22:2854.0645-3.548721673717364Clb=4.8m/s t=-58.2C h=1.5% p=-1.0hPa 405.101 MHz Type=RS41-SG ser=U2750203 Radiosonde
GB3EI-15U27502032022-12-06 07:22:2754.0646-3.548761653917359Clb=5.4m/s t=-273.0C h=-1.0% p=-1.0hPa 405.100 MHz Type=RS41-SG ser=U2750203 Radiosonde
G3HRZU27502032022-12-06 07:21:5754.0674-3.550691543117211Clb=5.0m/s t=-57.7C h=1.6% p=-1.0hPa 405.101 MHz Type=RS41-SG ser=U2750203 Radiosonde
G4VFL-14U27502032022-12-06 07:21:4454.0683-3.551621452817147Clb=4.0m/s t=-57.2C h=4.7% 405.10MHz Type=RS41-SG TxPastBurst=8h30m batt=2.6V Details on http://radiosondy.info
G4VFL-14U27502032022-12-06 07:21:2854.0693-3.552521622617071Clb=5.4m/s t=-57.6C h=4.6% 405.10MHz Type=RS41-SG Details on http://radiosondy.info
G3HRZU27502032022-12-06 07:21:2654.0694-3.552581602017061Clb=5.0m/s t=-57.9C h=1.6% p=-1.0hPa 405.101 MHz Type=RS41-SG ser=U2750203 Radiosonde
G4VFL-14U27502032022-12-06 07:21:1254.0701-3.553341472616994Clb=4.9m/s t=-58.6C h=4.9% 405.10MHz Type=RS41-SG Details on http://radiosondy.info
G4VFL-14U27502032022-12-06 07:20:5754.0711-3.55371782216920Clb=4.2m/s t=-58.8C h=5.1% 405.10MHz Type=RS41-SG batt=2.6V Details on http://radiosondy.info
G3HRZU27502032022-12-06 07:20:5554.0712-3.55371792816910Clb=3.7m/s t=-59.0C h=1.7% p=-1.0hPa 405.101 MHz Type=RS41-SG ser=U2750203 Radiosonde
F5RZC-14U27502032022-12-06 07:20:5054.0715-3.553761832016887Clb=4.6m/s t=-58.9C h=4.9% calibration 96% 405.10MHz Type=RS41-SG batt=2.6V Details on http://radiosondy.info
G4VFL-14U27502032022-12-06 07:20:4254.0719-3.553661902416850Clb=4.9m/s t=-59.0C h=5.0% 405.10MHz Type=RS41-SG Details on http://radiosondy.info
F5RZC-14U27502032022-12-06 07:20:3554.0722-3.553452202616818Clb=5.0m/s t=-59.9C h=5.2% calibration 66% 405.10MHz Type=RS41 Details on http://radiosondy.info
G4VFL-14U27502032022-12-06 07:20:2654.0727-3.5531943116777Clb=4.9m/s t=-60.4C h=5.6% 405.10MHz Type=RS41-SG Details on http://radiosondy.info
G3HRZU27502032022-12-06 07:20:2454.0729-3.552951962616769Clb=4.7m/s t=-60.3C h=2.0% p=-1.0hPa 405.101 MHz Type=RS41-SG ser=U2750203 Radiosonde
F5RZC-14U27502032022-12-06 07:20:2054.0732-3.552811943116751Clb=4.7m/s t=-60.2C calibration 37% 405.10MHz Type=RS41 Details on http://radiosondy.info
G4VFL-14U27502032022-12-06 07:20:1054.074-3.552531922816705Clb=4.3m/s t=-59.9C h=5.6% 405.10MHz Type=RS41-SG batt=2.6V Details on http://radiosondy.info
F5RZC-14U27502032022-12-06 07:20:0554.0743-3.552451973016684Clb=4.5m/s calibration 7% 405.10MHz Type=RS41 TxPastBurst=8h30m batt=2.7V Details on http://radiosondy.info
G4VFL-14U27502032022-12-06 07:19:5454.0751-3.552131922816633Clb=3.3m/s t=-59.5C h=5.4% 405.10MHz Type=RS41-SG Details on http://radiosondy.info
G3HRZU27502032022-12-06 07:19:5354.0751-3.552111882416628Clb=5.5m/s t=-59.5C h=1.9% p=-1.0hPa 405.101 MHz Type=RS41-SG ser=U2750203 Radiosonde
G3HRZU27502032022-12-06 07:19:2254.077-3.550821972416488Clb=4.4m/s t=-58.9C h=1.9% p=-1.0hPa 405.101 MHz Type=RS41-SG ser=U2750203 Radiosonde
G3HRZU27502032022-12-06 07:18:5154.0783-3.5501186916347Clb=4.9m/s t=-59.2C h=1.9% p=-1.0hPa 405.101 MHz Type=RS41-SG ser=U2750203 Radiosonde
G4VFL-14U27502032022-12-06 07:18:4454.0786-3.550131862416314Clb=5.3m/s t=-59.1C h=5.2% 405.10MHz Type=RS41-SG Details on http://radiosondy.info
G4VFL-14U27502032022-12-06 07:18:2754.0796-3.550041862416237Clb=5.1m/s t=-59.1C h=5.2% 405.10MHz Type=RS41-SG TxPastBurst=8h30m batt=2.6V Details on http://radiosondy.info
G3HRZU27502032022-12-06 07:18:2054.0799-3.549951902016204Clb=4.1m/s t=-59.4C h=1.9% p=-1.0hPa 405.101 MHz Type=RS41-SG ser=U2750203 Radiosonde
G4VFL-14U27502032022-12-06 07:18:1254.0805-3.549851882616165Clb=5.5m/s t=-59.2C h=5.3% 405.10MHz Type=RS41-SG Details on http://radiosondy.info
G4VFL-14U27502032022-12-06 07:17:5754.0814-3.549452013016091Clb=4.5m/s t=-58.9C h=5.3% 405.10MHz Type=RS41-SG Details on http://radiosondy.info
G3HRZU27502032022-12-06 07:17:4954.082-3.549121993016052Clb=4.3m/s t=-58.7C h=1.9% p=-1.0hPa 405.101 MHz Type=RS41-SG ser=U2750203 Radiosonde
G4VFL-14U27502032022-12-06 07:17:4154.0825-3.548762062816012Clb=2.8m/s t=-58.7C h=5.1% 405.10MHz Type=RS41-SG batt=2.6V Details on http://radiosondy.info
G4VFL-14U27502032022-12-06 07:17:2554.0835-3.547872083015932Clb=5.6m/s t=-58.4C h=5.1% 405.10MHz Type=RS41-SG Details on http://radiosondy.info
G3HRZU27502032022-12-06 07:17:1854.0841-3.547462002815890Clb=4.5m/s t=-58.2C h=1.9% p=-1.0hPa 405.101 MHz Type=RS41-SG ser=U2750203 Radiosonde
G4VFL-14U27502032022-12-06 07:17:0954.0846-3.547012092815851Clb=5.8m/s t=-58.0C h=5.0% 405.10MHz Type=RS41-SG Details on http://radiosondy.info
G4VFL-14U27502032022-12-06 07:16:5354.0856-3.545982222415769Clb=5.5m/s t=-57.9C h=4.9% 405.10MHz Type=RS41-SG batt=2.7V Details on http://radiosondy.info
G3HRZU27502032022-12-06 07:16:4754.086-3.545442143315733Clb=5.5m/s t=-57.8C h=1.8% p=-1.0hPa 405.101 MHz Type=RS41-SG ser=U2750203 Radiosonde
G3HRZU27502032022-12-06 07:16:1654.0875-3.543422081515574Clb=5.3m/s t=-57.2C h=1.7% p=-1.0hPa 405.101 MHz Type=RS41-SG ser=U2750203 Radiosonde
G3HRZU27502032022-12-06 07:15:4554.0888-3.542461811915413Clb=4.8m/s t=-56.1C h=1.6% p=-1.0hPa 405.101 MHz Type=RS41-SG ser=U2750203 Radiosonde
G4VFL-14U27502032022-12-06 07:15:3154.0894-3.542061912215349Clb=3.8m/s t=-55.6C h=4.3% 405.10MHz Type=RS41-SG Details on http://radiosondy.info
G4VFL-14U27502032022-12-06 07:15:1554.0902-3.541821892815270Clb=4.7m/s t=-55.2C h=4.2% 405.10MHz Type=RS41-SG Details on http://radiosondy.info
G3HRZU27502032022-12-06 07:15:1454.0903-3.541781982415260Clb=4.1m/s t=-55.2C h=1.5% p=-1.0hPa 405.101 MHz Type=RS41-SG ser=U2750203 Radiosonde
G4VFL-14U27502032022-12-06 07:14:5954.0913-3.54161803315193Clb=5.2m/s t=-54.9C h=4.3% 405.10MHz Type=RS41-SG TxPastBurst=8h30m batt=2.6V Details on http://radiosondy.info
G4VFL-14U27502032022-12-06 07:14:4454.0925-3.541671724115123Clb=5.3m/s t=-55.0C h=4.1% 405.10MHz Type=RS41-SG Details on http://radiosondy.info
G3HRZU27502032022-12-06 07:14:4354.0928-3.541791613915108Clb=5.1m/s t=-55.1C h=1.5% p=-1.0hPa 405.101 MHz Type=RS41-SG ser=U2750203 Radiosonde
G4VFL-14U27502032022-12-06 07:14:2854.0941-3.542181644615050Clb=4.1m/s t=-55.8C h=4.4% 405.10MHz Type=RS41-SG Details on http://radiosondy.info
G4VFL-14U27502032022-12-06 07:14:1254.096-3.542741653714984Clb=4.3m/s t=-55.9C h=4.5% 405.10MHz Type=RS41-SG batt=2.6V Details on http://radiosondy.info
G4VFL-14U27502032022-12-06 07:13:5654.0974-3.543151743014918Clb=4.8m/s t=-55.8C h=4.5% 405.10MHz Type=RS41-SG Details on http://radiosondy.info
G3HRZU27502032022-12-06 07:13:4154.0983-3.543381772214844Clb=4.4m/s t=-55.4C h=1.6% p=-1.0hPa 405.101 MHz Type=RS41-SG ser=U2750203 Radiosonde
G3HRZU27502032022-12-06 07:13:0954.1-3.543541792814706Clb=4.9m/s t=-56.3C h=1.6% p=-1.0hPa 405.101 MHz Type=RS41-SG ser=U2750203 Radiosonde
G3HRZU27502032022-12-06 07:12:3954.1021-3.542771823114562Clb=4.4m/s t=-56.1C h=1.6% p=-1.0hPa 405.101 MHz Type=RS41-SG ser=U2750203 Radiosonde
G4VFL-14U27502032022-12-06 07:12:3054.1028-3.542671863114524Clb=5.4m/s t=-55.9C h=4.4% 405.10MHz Type=RS41-SG Details on http://radiosondy.info
G4VFL-14U27502032022-12-06 07:12:1554.1039-3.542761763714451Clb=5.9m/s t=-55.8C h=4.3% 405.10MHz Type=RS41-SG batt=2.7V Details on http://radiosondy.info
G3HRZU27502032022-12-06 07:12:0754.1047-3.542921713914412Clb=5.1m/s t=-56.0C h=1.6% p=-1.0hPa 405.101 MHz Type=RS41-SG ser=U2750203 Radiosonde
G4VFL-14U27502032022-12-06 07:11:5854.1055-3.543241623314367Clb=5.2m/s t=-55.7C h=4.5% 405.10MHz Type=RS41-SG Details on http://radiosondy.info
G4VFL-14U27502032022-12-06 07:11:4254.1068-3.543771703114290Clb=5.9m/s t=-55.4C h=4.2% 405.10MHz Type=RS41-SG Details on http://radiosondy.info
G3HRZU27502032022-12-06 07:11:3654.1073-3.543941703114256Clb=4.4m/s t=-55.6C h=1.7% p=-1.0hPa 405.101 MHz Type=RS41-SG ser=U2750203 Radiosonde
G4VFL-14U27502032022-12-06 07:11:2754.1079-3.543931882814217Clb=5.7m/s t=-55.7C h=4.3% 405.10MHz Type=RS41-SG TxPastBurst=8h30m batt=2.6V Details on http://radiosondy.info
G4VFL-14U27502032022-12-06 07:11:1154.109-3.543691812214140Clb=5.0m/s t=-55.7C h=4.5% 405.10MHz Type=RS41-SG Details on http://radiosondy.info
G3HRZU27502032022-12-06 07:11:0554.1094-3.543711752014110Clb=4.8m/s t=-55.6C h=1.7% p=-1.0hPa 405.101 MHz Type=RS41-SG ser=U2750203 Radiosonde
G4VFL-14U27502032022-12-06 07:10:5554.1099-3.543741761914064Clb=4.1m/s t=-55.5C h=4.2% 405.10MHz Type=RS41-SG Details on http://radiosondy.info
G3HRZU27502032022-12-06 07:10:3454.111-3.544031671913970Clb=4.6m/s t=-55.3C h=1.6% p=-1.0hPa 405.101 MHz Type=RS41-SG ser=U2750203 Radiosonde
G3HRZU27502032022-12-06 07:10:0354.1121-3.54475164613832Clb=3.2m/s t=-55.2C h=1.6% p=-1.0hPa 405.101 MHz Type=RS41-SG ser=U2750203 Radiosonde
G4VFL-14U27502032022-12-06 07:09:4454.1126-3.544851772013744Clb=4.8m/s t=-55.6C h=4.4% 405.10MHz Type=RS41-SG batt=2.6V Details on http://radiosondy.info
G3HRZU27502032022-12-06 07:09:3254.1132-3.544871741713693Clb=5.1m/s t=-55.6C h=1.7% p=-1.0hPa 405.101 MHz Type=RS41-SG ser=U2750203 Radiosonde
G4VFL-14U27502032022-12-06 07:09:2854.1134-3.54491841713677Clb=3.9m/s t=-55.5C h=4.3% 405.10MHz Type=RS41-SG Details on http://radiosondy.info
G4VFL-14U27502032022-12-06 07:09:1254.114-3.544532132013606Clb=4.7m/s t=-55.6C h=4.3% 405.10MHz Type=RS41-SG Details on http://radiosondy.info
G3HRZU27502032022-12-06 07:09:0154.1145-3.544082061713560Clb=4.0m/s t=-56.1C h=1.8% p=-1.0hPa 405.101 MHz Type=RS41-SG ser=U2750203 Radiosonde
G4VFL-14U27502032022-12-06 07:08:5654.1147-3.543881961513538Clb=3.7m/s t=-56.1C h=4.7% 405.10MHz Type=RS41-SG batt=2.7V Details on http://radiosondy.info
G4VFL-14U27502032022-12-06 07:08:4054.1153-3.543771851513468Clb=3.8m/s t=-55.9C h=4.7% 405.10MHz Type=RS41-SG Details on http://radiosondy.info
G3HRZU27502032022-12-06 07:08:3054.1156-3.543781711113425Clb=3.7m/s t=-56.2C h=1.9% p=-1.0hPa 405.101 MHz Type=RS41-SG ser=U2750203 Radiosonde
G4VFL-14U27502032022-12-06 07:08:2454.1159-3.543851812213400Clb=3.8m/s t=-56.1C h=4.8% 405.10MHz Type=RS41-SG Details on http://radiosondy.info
G4VFL-14U27502032022-12-06 07:08:0954.1167-3.543931752213335Clb=3.8m/s t=-55.8C h=4.6% 405.10MHz Type=RS41-SG TxPastBurst=8h30m batt=2.7V Details on http://radiosondy.info
G3HRZU27502032022-12-06 07:07:5954.1172-3.544211591913288Clb=4.2m/s t=-55.8C h=2.1% p=-1.0hPa 405.101 MHz Type=RS41-SG ser=U2750203 Radiosonde
G4VFL-14U27502032022-12-06 07:07:5454.1175-3.544331732413266Clb=4.3m/s t=-55.7C h=4.7% 405.10MHz Type=RS41-SG Details on http://radiosondy.info
G3HRZU27502032022-12-06 07:07:2854.1191-3.544631662213149Clb=5.4m/s t=-55.6C h=2.2% p=-1.0hPa 405.101 MHz Type=RS41-SG ser=U2750203 Radiosonde
G3HRZU27502032022-12-06 07:06:5754.1209-3.545551692213009Clb=4.4m/s t=-57.0C h=2.6% p=-1.0hPa 405.101 MHz Type=RS41-SG ser=U2750203 Radiosonde
G4VFL-14U27502032022-12-06 07:06:4454.1216-3.545891683012953Clb=3.9m/s t=-57.2C h=5.5% 405.10MHz Type=RS41-SG Details on http://radiosondy.info
G4VFL-14U27502032022-12-06 07:06:2754.1228-3.546271763012877Clb=3.3m/s t=-56.8C h=5.6% 405.10MHz Type=RS41-SG batt=2.6V Details on http://radiosondy.info
G3HRZU27502032022-12-06 07:06:2654.1229-3.546281783012873Clb=5.3m/s t=-56.8C h=2.7% p=-1.0hPa 405.101 MHz Type=RS41-SG ser=U2750203 Radiosonde
G4VFL-14U27502032022-12-06 07:06:1254.1239-3.546281833012810Clb=3.5m/s t=-56.6C h=5.4% 405.10MHz Type=RS41-SG Details on http://radiosondy.info
G4VFL-14U27502032022-12-06 07:05:5654.1251-3.545962003312737Clb=4.5m/s t=-57.4C h=5.9% 405.10MHz Type=RS41-SG Details on http://radiosondy.info
G3HRZU27502032022-12-06 07:05:5554.1252-3.545911983512733Clb=3.5m/s t=-57.5C h=3.0% p=-1.0hPa 405.101 MHz Type=RS41-SG ser=U2750203 Radiosonde
G4VFL-14U27502032022-12-06 07:05:4154.1264-3.545541883512671Clb=4.7m/s t=-57.3C h=6.2% 405.10MHz Type=RS41-SG batt=2.6V Details on http://radiosondy.info
G4VFL-14U27502032022-12-06 07:05:2654.1277-3.545481803512603Clb=4.0m/s t=-56.9C h=6.2% 405.10MHz Type=RS41-SG Details on http://radiosondy.info
G3HRZU27502032022-12-06 07:05:2454.1278-3.545491773312595Clb=4.9m/s t=-56.9C h=3.4% p=-1.0hPa 405.101 MHz Type=RS41-SG ser=U2750203 Radiosonde
G4VFL-14U27502032022-12-06 07:05:1054.129-3.545431803712529Clb=4.9m/s t=-56.6C h=6.3% 405.10MHz Type=RS41-SG Details on http://radiosondy.info
G4VFL-14U27502032022-12-06 07:04:5454.1305-3.54541833912455Clb=4.1m/s t=-56.2C h=6.5% 405.10MHz Type=RS41-SG TxPastBurst=8h30m batt=2.6V Details on http://radiosondy.info
G3HRZU27502032022-12-06 07:04:5354.1306-3.545391833712450Clb=5.4m/s t=-56.3C h=3.6% p=-1.0hPa 405.101 MHz Type=RS41-SG ser=U2750203 Radiosonde
G3HRZU27502032022-12-06 07:04:2254.1333-3.545151763312310Clb=3.8m/s t=-56.9C h=4.7% p=-1.0hPa 405.101 MHz Type=RS41-SG ser=U2750203 Radiosonde
G3HRZU27502032022-12-06 07:03:5154.1364-3.544791804312174Clb=4.3m/s t=-57.8C h=6.5% p=-1.0hPa 405.101 MHz Type=RS41-SG ser=U2750203 Radiosonde
G4VFL-14U27502032022-12-06 07:03:4454.137-3.54481804112148Clb=4.5m/s t=-57.9C h=10.0% 405.10MHz Type=RS41-SG Details on http://radiosondy.info
G4VFL-14U27502032022-12-06 07:03:2954.1385-3.545011673712084Clb=4.1m/s t=-58.9C h=12.0% 405.10MHz Type=RS41-SG Details on http://radiosondy.info
G3HRZU27502032022-12-06 07:03:2054.1393-3.545311683512044Clb=3.4m/s t=-59.0C h=8.1% p=-1.0hPa 405.101 MHz Type=RS41-SG ser=U2750203 Radiosonde
G4VFL-14U27502032022-12-06 07:03:1354.14-3.54561673312014Clb=3.8m/s t=-58.9C h=12.2% 405.10MHz Type=RS41-SG batt=2.6V Details on http://radiosondy.info
G4VFL-14U27502032022-12-06 07:02:5754.1412-3.546121602611947Clb=3.6m/s t=-58.7C h=12.0% 405.10MHz Type=RS41-SG Details on http://radiosondy.info
G3HRZU27502032022-12-06 07:02:4954.1417-3.546311621311910Clb=6.0m/s t=-58.7C h=7.8% p=-1.0hPa 405.101 MHz Type=RS41-SG ser=U2750203 Radiosonde
G4VFL-14U27502032022-12-06 07:02:4154.1421-3.546641602211864Clb=6.0m/s t=-59.1C h=11.7% 405.10MHz Type=RS41-SG Details on http://radiosondy.info
G4VFL-14U27502032022-12-06 07:02:2554.143-3.547181632211797Clb=4.9m/s t=-58.7C h=11.5% 405.10MHz Type=RS41-SG batt=2.6V Details on http://radiosondy.info
G3HRZU27502032022-12-06 07:02:1854.1433-3.547272111511738Clb=3.6m/s t=-58.4C h=7.1% p=-1.0hPa 405.101 MHz Type=RS41-SG ser=U2750203 Radiosonde
G4VFL-14U27502032022-12-06 07:02:0854.1438-3.54731722811674Clb=4.4m/s t=-57.7C h=10.7% 405.10MHz Type=RS41-SG Details on http://radiosondy.info
G4VFL-14U27502032022-12-06 07:01:5354.1449-3.547531713111602Clb=4.8m/s t=-57.2C h=10.1% 405.10MHz Type=RS41-SG Details on http://radiosondy.info
G3HRZU27502032022-12-06 07:01:4654.1454-3.547651693111567Clb=6.1m/s t=-57.6C h=7.1% p=-1.0hPa 405.101 MHz Type=RS41-SG ser=U2750203 Radiosonde
G3HRZU27502032022-12-06 07:01:1554.148-3.547821783511430Clb=5.2m/s t=-58.0C h=9.0% p=-1.0hPa 405.101 MHz Type=RS41-SG ser=U2750203 Radiosonde
G3HRZU27502032022-12-06 07:00:4454.1509-3.548771563711293Clb=3.3m/s t=-57.9C h=10.1% p=-1.0hPa 405.101 MHz Type=RS41-SG ser=U2750203 Radiosonde
G4VFL-14U27502032022-12-06 07:00:2854.1522-3.549771483311225Clb=4.6m/s t=-57.5C h=13.8% 405.10MHz Type=RS41-SG Details on http://radiosondy.info
G3HRZU27502032022-12-06 07:00:1354.1533-3.550661532811161Clb=3.0m/s t=-57.2C h=11.6% p=-1.0hPa 405.101 MHz Type=RS41-SG ser=U2750203 Radiosonde
G4VFL-14U27502032022-12-06 07:00:1254.1534-3.550711583311157Clb=4.6m/s t=-57.2C h=15.7% 405.10MHz Type=RS41-SG Details on http://radiosondy.info
G4VFL-14U27502032022-12-06 06:59:5754.1545-3.551391663911098Clb=2.6m/s t=-58.1C h=17.9% 405.10MHz Type=RS41-SG batt=2.7V Details on http://radiosondy.info
G3HRZU27502032022-12-06 06:59:4254.1559-3.551771713711034Clb=4.9m/s t=-57.9C h=13.4% p=-1.0hPa 405.101 MHz Type=RS41-SG ser=U2750203 Radiosonde
G4VFL-14U27502032022-12-06 06:59:4154.156-3.551791723311030Clb=3.2m/s t=-57.8C h=17.4% 405.10MHz Type=RS41-SG Details on http://radiosondy.info
G4VFL-14U27502032022-12-06 06:59:2654.1572-3.551931843110964Clb=3.7m/s t=-58.1C h=18.0% 405.10MHz Type=RS41-SG Details on http://radiosondy.info
G3HRZU27502032022-12-06 06:59:1154.1584-3.551741892610899Clb=5.2m/s t=-58.7C h=14.8% p=-1.0hPa 405.101 MHz Type=RS41-SG ser=U2750203 Radiosonde
G4VFL-14U27502032022-12-06 06:59:1054.1585-3.551731862810895Clb=3.7m/s t=-58.7C h=19.1% 405.10MHz Type=RS41-SG batt=2.7V Details on http://radiosondy.info
G4VFL-14U27502032022-12-06 06:58:5454.1596-3.551451973110825Clb=3.8m/s t=-58.3C h=18.7% 405.10MHz Type=RS41-SG Details on http://radiosondy.info
G3HRZU27502032022-12-06 06:58:4054.1605-3.550992043010762Clb=4.1m/s t=-57.8C h=14.8% p=-1.0hPa 405.101 MHz Type=RS41-SG ser=U2750203 Radiosonde
G3HRZU27502032022-12-06 06:58:0954.1622-3.549062164110602Clb=5.8m/s t=-57.0C h=16.6% p=-1.0hPa 405.101 MHz Type=RS41-SG ser=U2750203 Radiosonde
G4VFL-14U27502032022-12-06 06:57:4354.1645-3.546862014310481Clb=3.7m/s t=-58.0C h=23.3% 405.10MHz Type=RS41-SG Details on http://radiosondy.info
G3HRZU27502032022-12-06 06:57:3854.165-3.546532004110461Clb=4.7m/s t=-58.1C h=18.6% p=-1.0hPa 405.101 MHz Type=RS41-SG ser=U2750203 Radiosonde
G4VFL-14U27502032022-12-06 06:57:2854.166-3.5461904310421Clb=2.6m/s t=-57.9C h=22.9% 405.10MHz Type=RS41-SG TxPastBurst=8h30m batt=2.7V Details on http://radiosondy.info
G4VFL-14U27502032022-12-06 06:57:1254.1676-3.545181993910356Clb=5.0m/s t=-57.4C h=22.7% 405.10MHz Type=RS41-SG Details on http://radiosondy.info
G3HRZU27502032022-12-06 06:57:0754.1681-3.544872043910335Clb=4.2m/s t=-57.7C h=19.1% p=-1.0hPa 405.101 MHz Type=RS41-SG ser=U2750203 Radiosonde
G4VFL-14U27502032022-12-06 06:56:5554.1692-3.544292013510286Clb=3.8m/s t=-57.5C h=23.9% 405.10MHz Type=RS41-SG Details on http://radiosondy.info
G4VFL-14U27502032022-12-06 06:56:4054.1704-3.543462043510222Clb=4.9m/s t=-57.0C h=23.6% 405.10MHz Type=RS41-SG batt=2.7V Details on http://radiosondy.info
G3HRZU27502032022-12-06 06:56:3654.1707-3.543222033110206Clb=4.3m/s t=-56.9C h=18.9% p=-1.0hPa 405.101 MHz Type=RS41-SG ser=U2750203 Radiosonde
G4VFL-14U27502032022-12-06 06:56:2554.1716-3.542612123510161Clb=3.2m/s t=-56.4C h=22.6% 405.10MHz Type=RS41-SG Details on http://radiosondy.info
G4VFL-14U27502032022-12-06 06:56:0954.1728-3.541472083310093Clb=5.1m/s t=-55.7C h=22.2% 405.10MHz Type=RS41-SG Details on http://radiosondy.info
G3HRZU27502032022-12-06 06:56:0554.1731-3.541212023310076Clb=3.7m/s t=-55.6C h=18.5% p=-1.0hPa 405.101 MHz Type=RS41-SG ser=U2750203 Radiosonde
G4VFL-14U27502032022-12-06 06:55:5354.1741-3.54061943310026Clb=3.9m/s t=-55.1C h=23.5% 405.10MHz Type=RS41-SG batt=2.7V Details on http://radiosondy.info
G3HRZU27502032022-12-06 06:55:3454.1756-3.53948203379946Clb=4.9m/s t=-55.1C h=21.2% p=-1.0hPa 405.101 MHz Type=RS41-SG ser=U2750203 Radiosonde
G3HRZU27502032022-12-06 06:55:0354.1781-3.53723208399826Clb=3.7m/s t=-54.8C h=23.5% p=-1.0hPa 405.101 MHz Type=RS41-SG ser=U2750203 Radiosonde
G4VFL-14U27502032022-12-06 06:54:4154.1801-3.53596198309738Clb=3.8m/s t=-55.0C h=32.2% 405.10MHz Type=RS41-SG Details on http://radiosondy.info
G3HRZU27502032022-12-06 06:54:3254.1807-3.53537215289695Clb=3.1m/s t=-54.7C h=27.2% p=-1.0hPa 405.101 MHz Type=RS41-SG ser=U2750203 Radiosonde
G4VFL-14U27502032022-12-06 06:54:2554.1811-3.53496212309672Clb=3.9m/s t=-54.4C h=31.2% 405.10MHz Type=RS41-SG Details on http://radiosondy.info
G4VFL-14U27502032022-12-06 06:54:1054.1819-3.53392210319613Clb=4.7m/s t=-54.0C h=31.8% 405.10MHz Type=RS41-SG TxPastBurst=8h30m batt=2.7V Details on http://radiosondy.info
G3HRZU27502032022-12-06 06:54:0154.1826-3.53322216309573Clb=4.1m/s t=-53.8C h=28.2% p=-1.0hPa 405.101 MHz Type=RS41-SG ser=U2750203 Radiosonde
G4VFL-14U27502032022-12-06 06:53:5554.1829-3.5328216309554Clb=3.7m/s t=-53.6C h=32.4% 405.10MHz Type=RS41-SG Details on http://radiosondy.info
G4VFL-14U27502032022-12-06 06:53:4054.1838-3.5316217309495Clb=4.5m/s t=-53.2C h=32.5% 405.10MHz Type=RS41-SG Details on http://radiosondy.info
G3HRZU27502032022-12-06 06:53:3054.1844-3.53073213309451Clb=3.6m/s t=-53.1C h=31.2% p=-1.0hPa 405.101 MHz Type=RS41-SG ser=U2750203 Radiosonde
G4VFL-14U27502032022-12-06 06:53:2554.1847-3.53044216309435Clb=2.3m/s t=-52.9C h=36.9% 405.10MHz Type=RS41-SG batt=2.7V Details on http://radiosondy.info
G4VFL-14U27502032022-12-06 06:53:0954.1856-3.52921218339372Clb=3.8m/s t=-52.6C h=38.6% 405.10MHz Type=RS41-SG Details on http://radiosondy.info
G3HRZU27502032022-12-06 06:52:5954.1863-3.52821217359327Clb=4.9m/s t=-52.3C h=37.1% p=-1.0hPa 405.101 MHz Type=RS41-SG ser=U2750203 Radiosonde
G4VFL-14U27502032022-12-06 06:52:5454.1866-3.52787216359311Clb=3.8m/s t=-52.2C h=42.3% 405.10MHz Type=RS41-SG Details on http://radiosondy.info
G3HRZU27502032022-12-06 06:52:2854.1885-3.52533207339202Clb=4.0m/s t=-51.3C h=30.4% p=-1.0hPa 405.101 MHz Type=RS41-SG ser=U2750203 Radiosonde
G3HRZU27502032022-12-06 06:51:5654.191-3.52236217379085Clb=4.0m/s t=-50.2C h=27.0% p=-1.0hPa 405.101 MHz Type=RS41-SG ser=U2750203 Radiosonde
G4VFL-14U27502032022-12-06 06:51:4454.1919-3.52118216379040Clb=3.2m/s t=-49.9C h=34.9% 405.10MHz Type=RS41-SG batt=2.7V Details on http://radiosondy.info
G4VFL-14U27502032022-12-06 06:51:2854.1931-3.51977214398980Clb=4.3m/s t=-50.0C h=47.9% 405.10MHz Type=RS41-SG Details on http://radiosondy.info
G3HRZU27502032022-12-06 06:51:2554.1934-3.5195214378970Clb=3.6m/s t=-49.9C h=44.0% p=-1.0hPa 405.101 MHz Type=RS41-SG ser=U2750203 Radiosonde
G4VFL-14U27502032022-12-06 06:51:1254.1945-3.51844210418921Clb=3.7m/s t=-49.5C h=51.3% 405.10MHz Type=RS41-SG Details on http://radiosondy.info
G4VFL-14U27502032022-12-06 06:50:5654.1959-3.51698209448861Clb=3.5m/s t=-49.0C h=54.5% 405.10MHz Type=RS41-SG TxPastBurst=8h30m batt=2.7V Details on http://radiosondy.info
G3HRZU27502032022-12-06 06:50:5454.1961-3.51678209468854Clb=4.1m/s t=-49.0C h=51.0% p=-1.0hPa 405.101 MHz Type=RS41-SG ser=U2750203 Radiosonde
G4VFL-14U27502032022-12-06 06:50:4054.1974-3.51549213398796Clb=4.5m/s t=-48.7C h=53.2% 405.10MHz Type=RS41-SG Details on http://radiosondy.info
G4VFL-14U27502032022-12-06 06:50:2554.1986-3.51413212378736Clb=3.8m/s t=-48.3C h=52.2% 405.10MHz Type=RS41-SG Details on http://radiosondy.info
G3HRZU27502032022-12-06 06:50:2354.1988-3.5139213338725Clb=3.9m/s t=-48.2C h=47.5% p=-1.0hPa 405.101 MHz Type=RS41-SG ser=U2750203 Radiosonde
G4VFL-14U27502032022-12-06 06:50:0954.1998-3.5128209378675Clb=4.2m/s t=-47.7C h=50.1% 405.10MHz Type=RS41-SG batt=2.7V Details on http://radiosondy.info
G4VFL-14U27502032022-12-06 06:49:5454.2011-3.51162205438612Clb=4.6m/s t=-47.1C h=47.1% 405.10MHz Type=RS41-SG Details on http://radiosondy.info
G3HRZU27502032022-12-06 06:49:5254.2013-3.51147205438603Clb=5.0m/s t=-47.1C h=42.7% p=-1.0hPa 405.101 MHz Type=RS41-SG ser=U2750203 Radiosonde
G3HRZU27502032022-12-06 06:49:2154.2043-3.5089204448455Clb=4.2m/s t=-46.0C h=36.2% p=-1.0hPa 405.101 MHz Type=RS41-SG ser=U2750203 Radiosonde
G3HRZU27502032022-12-06 06:48:5054.2075-3.50645201448326Clb=4.9m/s t=-44.9C h=33.9% p=-1.0hPa 405.101 MHz Type=RS41-SG ser=U2750203 Radiosonde
G4VFL-14U27502032022-12-06 06:48:4254.2083-3.50583204488289Clb=4.1m/s t=-44.5C h=35.2% 405.10MHz Type=RS41-SG Details on http://radiosondy.info
G4VFL-14U27502032022-12-06 06:48:2654.2101-3.50453207488220Clb=3.8m/s t=-43.9C h=32.6% 405.10MHz Type=RS41-SG batt=2.7V Details on http://radiosondy.info
G3HRZU27502032022-12-06 06:48:1954.2109-3.50396199508188Clb=3.8m/s t=-43.6C h=29.1% p=-1.0hPa 405.101 MHz Type=RS41-SG ser=U2750203 Radiosonde
G4VFL-14U27502032022-12-06 06:48:1054.2119-3.50328204488148Clb=4.1m/s t=-43.2C h=31.2% 405.10MHz Type=RS41-SG Details on http://radiosondy.info
G4VFL-14U27502032022-12-06 06:47:5554.2135-3.50205202468078Clb=5.4m/s t=-42.9C h=31.6% 405.10MHz Type=RS41-SG Details on http://radiosondy.info
G3HRZU27502032022-12-06 06:47:4854.2142-3.50159202438043Clb=7.1m/s t=-42.8C h=29.2% p=-1.0hPa 405.101 MHz Type=RS41-SG ser=U2750203 Radiosonde
G4VFL-14U27502032022-12-06 06:47:3954.2152-3.50086198467990Clb=5.2m/s t=-42.3C h=31.8% 405.10MHz Type=RS41-SG TxPastBurst=8h30m batt=2.7V Details on http://radiosondy.info
G4VFL-14U27502032022-12-06 06:47:2354.2169-3.49973203447910Clb=4.5m/s t=-41.8C h=34.4% 405.10MHz Type=RS41-SG Details on http://radiosondy.info
G3HRZU27502032022-12-06 06:47:1754.2175-3.49926209397882Clb=5.3m/s t=-41.6C h=31.3% p=-1.0hPa 405.101 MHz Type=RS41-SG ser=U2750203 Radiosonde
G4VFL-14U27502032022-12-06 06:47:0854.2184-3.49856204467840Clb=4.4m/s t=-41.4C h=35.9% 405.10MHz Type=RS41-SG Details on http://radiosondy.info
G4VFL-14U27502032022-12-06 06:46:5354.22-3.49738206487766Clb=5.0m/s t=-41.1C h=40.4% 405.10MHz Type=RS41-SG batt=2.7V Details on http://radiosondy.info
G3HRZU27502032022-12-06 06:46:4654.2207-3.49672208467732Clb=5.4m/s t=-40.9C h=36.8% p=-1.0hPa 405.101 MHz Type=RS41-SG ser=U2750203 Radiosonde
G3HRZU27502032022-12-06 06:46:1554.2236-3.49416207417590Clb=5.6m/s t=-39.7C h=39.6% p=-1.0hPa 405.101 MHz Type=RS41-SG ser=U2750203 Radiosonde
G3HRZU27502032022-12-06 06:45:4454.2261-3.4915216377455Clb=3.5m/s t=-38.9C h=43.6% p=-1.0hPa 405.101 MHz Type=RS41-SG ser=U2750203 Radiosonde
G4VFL-14U27502032022-12-06 06:45:4354.2262-3.49141216377452Clb=4.5m/s t=-38.8C h=46.1% 405.10MHz Type=RS41-SG Details on http://radiosondy.info
G4VFL-14U27502032022-12-06 06:45:2754.2274-3.48991223357385Clb=3.2m/s t=-38.2C h=45.9% 405.10MHz Type=RS41-SG Details on http://radiosondy.info
G3HRZU27502032022-12-06 06:45:1354.2284-3.48861219317325Clb=5.1m/s t=-37.8C h=46.4% p=-1.0hPa 405.101 MHz Type=RS41-SG ser=U2750203 Radiosonde
G4VFL-14U27502032022-12-06 06:45:1154.2285-3.48853218317322Clb=2.4m/s t=-37.8C h=49.8% 405.10MHz Type=RS41-SG batt=2.7V Details on http://radiosondy.info
G4VFL-14U27502032022-12-06 06:44:5654.2294-3.48731222307262Clb=3.9m/s t=-37.4C h=48.9% 405.10MHz Type=RS41-SG Details on http://radiosondy.info
G3HRZU27502032022-12-06 06:44:4254.2302-3.48598219307203Clb=5.2m/s t=-36.9C h=44.0% p=-1.0hPa 405.101 MHz Type=RS41-SG ser=U2750203 Radiosonde
G4VFL-14U27502032022-12-06 06:44:4054.2303-3.4859212317199Clb=3.7m/s t=-36.8C h=46.4% 405.10MHz Type=RS41-SG Details on http://radiosondy.info
G4VFL-14U27502032022-12-06 06:44:2554.2312-3.48464227317142Clb=5.4m/s t=-36.2C h=47.8% 405.10MHz Type=RS41-SG TxPastBurst=8h30m batt=2.7V Details on http://radiosondy.info
G3HRZU27502032022-12-06 06:44:1154.2321-3.48328223337082Clb=5.4m/s t=-35.7C h=43.5% p=-1.0hPa 405.101 MHz Type=RS41-SG ser=U2750203 Radiosonde
G4VFL-14U27502032022-12-06 06:44:1054.2321-3.48328224337082Clb=5.4m/s t=-35.7C h=45.7% 405.10MHz Type=RS41-SG Details on http://radiosondy.info
G4VFL-14U27502032022-12-06 06:43:5454.2331-3.4818218357020Clb=4.5m/s t=-35.1C h=39.9% 405.10MHz Type=RS41-SG Details on http://radiosondy.info
G3HRZU27502032022-12-06 06:43:4054.234-3.48044219356964Clb=2.9m/s t=-34.9C h=28.7% p=-1.0hPa 405.101 MHz Type=RS41-SG ser=U2750203 Radiosonde
G3HRZU27502032022-12-06 06:43:0954.2361-3.47741221356852Clb=3.7m/s t=-33.9C h=32.4% p=-1.0hPa 405.101 MHz Type=RS41-SG ser=U2750203 Radiosonde
G3HRZU27502032022-12-06 06:42:3854.2381-3.47443215376739Clb=3.5m/s t=-32.9C h=25.6% p=-1.0hPa 405.101 MHz Type=RS41-SG ser=U2750203 Radiosonde
G4VFL-14U27502032022-12-06 06:42:2954.2385-3.47361247306710Clb=4.6m/s t=-32.6C h=26.9% 405.10MHz Type=RS41-SG batt=2.7V Details on http://radiosondy.info
G4VFL-14U27502032022-12-06 06:42:1454.2393-3.47225226306624Clb=2.6m/s t=-31.8C h=22.5% 405.10MHz Type=RS41-SG Details on http://radiosondy.info
G3HRZU27502032022-12-06 06:42:0754.2397-3.47145237306590Clb=3.3m/s t=-31.5C h=20.6% p=-1.0hPa 405.101 MHz Type=RS41-SG ser=U2750203 Radiosonde
G4VFL-14U27502032022-12-06 06:41:5754.2401-3.47056230306553Clb=2.6m/s t=-31.1C h=20.6% 405.10MHz Type=RS41-SG Details on http://radiosondy.info
G4VFL-14U27502032022-12-06 06:41:4254.2407-3.46909224306496Clb=3.3m/s t=-30.6C h=15.2% 405.10MHz Type=RS41-SG batt=2.7V Details on http://radiosondy.info
G3HRZU27502032022-12-06 06:41:3654.2411-3.46846221316472Clb=2.8m/s t=-30.5C h=11.5% p=-1.0hPa 405.101 MHz Type=RS41-SG ser=U2750203 Radiosonde
G4VFL-14U27502032022-12-06 06:41:2654.2415-3.46757231286440Clb=2.6m/s t=-30.1C h=9.7% 405.10MHz Type=RS41-SG Details on http://radiosondy.info
G4VFL-14U27502032022-12-06 06:41:1054.2422-3.4662231336379Clb=2.9m/s t=-29.9C h=4.9% 405.10MHz Type=RS41-SG Details on http://radiosondy.info
G3HRZU27502032022-12-06 06:41:0454.2427-3.46574195356358Clb=3.0m/s t=-29.9C h=4.4% p=-1.0hPa 405.101 MHz Type=RS41-SG ser=U2750203 Radiosonde
G4VFL-14U27502032022-12-06 06:40:5454.2432-3.46492206286316Clb=4.1m/s t=-29.4C h=4.9% 405.10MHz Type=RS41-SG TxPastBurst=8h30m batt=2.7V Details on http://radiosondy.info
G3HRZU27502032022-12-06 06:40:3354.2444-3.46371221266210Clb=5.1m/s t=-29.3C h=4.2% p=-1.0hPa 405.101 MHz Type=RS41-SG ser=U2750203 Radiosonde
G3HRZU27502032022-12-06 06:40:0254.2458-3.46156234176049Clb=3.8m/s t=-28.2C h=5.4% p=-1.0hPa 405.101 MHz Type=RS41-SG ser=U2750203 Radiosonde
G3HRZU27502032022-12-06 06:39:3154.2474-3.45935220285904Clb=5.0m/s t=-27.0C h=5.2% p=-1.0hPa 405.101 MHz Type=RS41-SG ser=U2750203 Radiosonde
G4VFL-14U27502032022-12-06 06:39:2954.2475-3.4592218315896Clb=4.1m/s t=-26.9C h=5.6% 405.10MHz Type=RS41-SG Details on http://radiosondy.info
G4VFL-14U27502032022-12-06 06:39:1354.2485-3.45802206315827Clb=4.8m/s t=-26.4C h=5.9% 405.10MHz Type=RS41-SG Details on http://radiosondy.info
G3HRZU27502032022-12-06 06:39:0054.2494-3.45712206335769Clb=4.2m/s t=-26.1C h=8.3% p=-1.0hPa 405.101 MHz Type=RS41-SG ser=U2750203 Radiosonde
G4VFL-14U27502032022-12-06 06:38:5754.2497-3.45697201315756Clb=4.8m/s t=-25.9C h=8.2% 405.10MHz Type=RS41-SG batt=2.7V Details on http://radiosondy.info
G4VFL-14U27502032022-12-06 06:38:4154.2508-3.45609209335678Clb=5.3m/s t=-25.3C h=4.5% 405.10MHz Type=RS41-SG Details on http://radiosondy.info
G3HRZU27502032022-12-06 06:38:2954.2517-3.4554202355624Clb=4.7m/s t=-24.9C h=3.9% p=-1.0hPa 405.101 MHz Type=RS41-SG ser=U2750203 Radiosonde
G4VFL-14U27502032022-12-06 06:38:2654.2519-3.4552211355611Clb=4.8m/s t=-24.8C h=4.3% 405.10MHz Type=RS41-SG Details on http://radiosondy.info
G4VFL-14U27502032022-12-06 06:38:1054.2532-3.45414206355515Clb=7.2m/s t=-24.3C h=6.0% 405.10MHz Type=RS41-SG batt=2.9V Details on http://radiosondy.info
G3HRZU27502032022-12-06 06:37:5854.2541-3.45329211335456Clb=4.3m/s t=-23.9C h=6.9% p=-1.0hPa 405.101 MHz Type=RS41-SG ser=U2750203 Radiosonde
G4VFL-14U27502032022-12-06 06:37:5454.2544-3.45301207355436Clb=4.3m/s t=-23.7C h=7.8% 405.10MHz Type=RS41-SG Details on http://radiosondy.info
G3HRZU27502032022-12-06 06:37:2754.2566-3.45088208445300Clb=6.4m/s t=-22.6C h=10.2% p=-1.0hPa 405.101 MHz Type=RS41-SG ser=U2750203 Radiosonde
G3HRZU27502032022-12-06 06:36:5654.259-3.44799213395117Clb=4.4m/s t=-21.0C h=11.5% p=-1.0hPa 405.101 MHz Type=RS41-SG ser=U2750203 Radiosonde
G4VFL-14U27502032022-12-06 06:36:4354.26-3.44664213395061Clb=3.9m/s t=-20.5C h=8.3% 405.10MHz Type=RS41-SG Details on http://radiosondy.info
G4VFL-14U27502032022-12-06 06:36:2754.2612-3.44502216394981Clb=6.2m/s t=-19.9C h=7.6% 405.10MHz Type=RS41-SG TxPastBurst=8h30m batt=2.9V Details on http://radiosondy.info
G3HRZU27502032022-12-06 06:36:2554.2613-3.44482214414970Clb=4.5m/s t=-19.8C h=7.0% p=-1.0hPa 405.101 MHz Type=RS41-SG ser=U2750203 Radiosonde
G4VFL-14U27502032022-12-06 06:36:1154.2625-3.44357212374907Clb=3.6m/s t=-19.2C h=7.4% 405.10MHz Type=RS41-SG Details on http://radiosondy.info
G4VFL-14U27502032022-12-06 06:35:5554.2637-3.44209217394831Clb=4.5m/s t=-18.5C h=7.3% 405.10MHz Type=RS41-SG Details on http://radiosondy.info
G3HRZU27502032022-12-06 06:35:5454.2638-3.44199216414827Clb=4.8m/s t=-18.6C h=6.8% p=-1.0hPa 405.101 MHz Type=RS41-SG ser=U2750203 Radiosonde
G4VFL-14U27502032022-12-06 06:35:4054.2648-3.4406222334768Clb=2.9m/s t=-18.2C h=5.8% 405.10MHz Type=RS41-SG batt=2.9V Details on http://radiosondy.info
G4VFL-14U27502032022-12-06 06:35:2454.266-3.43955211314685Clb=3.9m/s t=-18.3C h=34.5% 405.10MHz Type=RS41-SG Details on http://radiosondy.info
G3HRZU27502032022-12-06 06:35:2354.2661-3.43948209334680Clb=5.7m/s t=-18.4C h=33.9% p=-1.0hPa 405.101 MHz Type=RS41-SG ser=U2750203 Radiosonde
G4VFL-14U27502032022-12-06 06:35:0854.2671-3.43857196334615Clb=3.2m/s t=-17.8C h=31.0% 405.10MHz Type=RS41-SG Details on http://radiosondy.info
G4VFL-14U27502032022-12-06 06:34:5254.2684-3.43803195264533Clb=5.8m/s t=-17.4C h=30.4% 405.10MHz Type=RS41-SG batt=2.7V Details on http://radiosondy.info
G3HRZU27502032022-12-06 06:34:2154.2706-3.43698198304401Clb=4.8m/s t=-17.6C h=54.7% p=-1.0hPa 405.101 MHz Type=RS41-SG ser=U2750203 Radiosonde
G3HRZU27502032022-12-06 06:33:5054.2729-3.43601197244274Clb=3.6m/s t=-16.8C h=58.2% p=-1.0hPa 405.101 MHz Type=RS41-SG ser=U2750203 Radiosonde
G4VFL-14U27502032022-12-06 06:33:3054.2742-3.43551220314180Clb=2.8m/s t=-15.9C h=57.6% 405.10MHz Type=RS41-SG Details on http://radiosondy.info
G3HRZU27502032022-12-06 06:33:1954.2751-3.43505202304116Clb=6.7m/s t=-15.7C h=55.9% p=-1.0hPa 405.101 MHz Type=RS41-SG ser=U2750203 Radiosonde
G4VFL-14U27502032022-12-06 06:33:1454.2754-3.43481212314099Clb=4.1m/s t=-15.6C h=57.3% 405.10MHz Type=RS41-SG Details on http://radiosondy.info
G4VFL-14U27502032022-12-06 06:32:5854.2765-3.43421192244018Clb=4.7m/s t=-15.1C h=36.4% 405.10MHz Type=RS41-SG TxPastBurst=8h30m batt=2.9V Details on http://radiosondy.info
G3HRZU27502032022-12-06 06:32:4854.2772-3.43412160223972Clb=3.3m/s t=-14.9C h=42.9% p=-1.0hPa 405.101 MHz Type=RS41 ser=U2750203 Radiosonde
G4VFL-14U27502032022-12-06 06:32:4254.2774-3.4342193263947Clb=6.2m/s t=-14.7C h=46.6% 405.10MHz Type=RS41-SG Details on http://radiosondy.info
G4VFL-14U27502032022-12-06 06:32:2654.2784-3.43384199193864Clb=6.9m/s t=-14.2C h=27.1% 405.10MHz Type=RS41-SG Details on http://radiosondy.info
G3HRZU27502032022-12-06 06:32:1754.2789-3.43395175193810Clb=7.0m/s t=-13.8C h=-1.0% p=-1.0hPa 405.101 MHz Type=RS41 ser=U2750203 Radiosonde
G4VFL-14U27502032022-12-06 06:32:1254.2792-3.43396193193780Clb=7.7m/s t=-13.5C h=13.1% 405.10MHz Type=RS41-SG batt=2.9V Details on http://radiosondy.info
G4VFL-14U27502032022-12-06 06:31:5454.2798-3.43353185193686Clb=4.8m/s t=-12.9C h=12.4% 405.10MHz Type=RS41-SG Details on http://radiosondy.info
G4VFL-14U27502032022-12-06 06:30:3054.2818-3.4311230243233Clb=4.5m/s t=-9.6C h=12.6% 405.10MHz Type=RS41-SG Details on http://radiosondy.info
G4VFL-14U27502032022-12-06 06:30:1454.2826-3.4304205333151Clb=4.2m/s t=-9.1C h=21.4% calibration 98% 405.10MHz Type=RS41-SG batt=2.9V Details on http://radiosondy.info
G4VFL-14U27502032022-12-06 06:29:5854.2839-3.42985208313071Clb=5.2m/s t=-8.5C h=14.5% calibration 98% 405.10MHz Type=RS41-SG Details on http://radiosondy.info
G4VFL-14U27502032022-12-06 06:29:4254.2851-3.42903204372996Clb=4.8m/s t=-7.9C h=12.9% calibration 98% 405.10MHz Type=RS41-SG Details on http://radiosondy.info
G4VFL-14U27502032022-12-06 06:29:2654.2864-3.42816201412915Clb=4.7m/s t=-7.3C h=14.3% calibration 98% 405.10MHz Type=RS41-SG TxPastBurst=8h30m batt=2.9V Details on http://radiosondy.info
G4VFL-14U27502032022-12-06 06:29:1054.2878-3.42673210372825Clb=6.1m/s t=-6.5C h=14.9% calibration 98% 405.10MHz Type=RS41-SG Details on http://radiosondy.info
G4VFL-14U27502032022-12-06 06:28:5454.2892-3.42588206442745Clb=4.6m/s t=-6.1C h=16.6% calibration 98% 405.10MHz Type=RS41-SG Details on http://radiosondy.info
G4VFL-14U27502032022-12-06 06:27:4254.2955-3.42114204372353Clb=5.8m/s t=-5.6C h=25.0% calibration 98% 405.10MHz Type=RS41-SG batt=2.9V Details on http://radiosondy.info
G4VFL-14U27502032022-12-06 06:27:2754.2967-3.42034172282266Clb=6.1m/s t=-6.8C h=75.9% calibration 98% 405.10MHz Type=RS41-SG Details on http://radiosondy.info
G4VFL-14U27502032022-12-06 06:27:1054.2979-3.42036203222163Clb=5.4m/s t=-7.0C h=89.1% calibration 98% 405.10MHz Type=RS41-SG Details on http://radiosondy.info
G4VFL-14U27502032022-12-06 06:26:5554.2987-3.42027196262078Clb=6.3m/s t=-6.7C h=82.1% calibration 98% 405.10MHz Type=RS41-SG batt=2.9V Details on http://radiosondy.info
G4VFL-14U27502032022-12-06 06:26:4054.2995-3.41967227171997Clb=4.5m/s t=-6.3C calibration 96% 405.10MHz Type=RS41-SG Details on http://radiosondy.info
G4VFL-14U27502032022-12-06 06:26:2454.3001-3.41961159171910Clb=5.5m/s t=-6.3C calibration 96% 405.10MHz Type=RS41-SG Details on http://radiosondy.info
G4VFL-14U27502032022-12-06 06:26:0854.3008-3.41939191191815Clb=5.8m/s t=-5.6C calibration 96% 405.10MHz Type=RS41-SG TxPastBurst=8h30m batt=2.9V Details on http://radiosondy.info
G4VFL-14U27502032022-12-06 06:25:5254.3015-3.41908200221726Clb=7.8m/s t=-5.3C calibration 96% 405.10MHz Type=RS41-SG Details on http://radiosondy.info
G4VFL-14U27502032022-12-06 06:24:4254.3063-3.41896184301351Clb=5.3m/s t=-2.1C calibration 96% 405.10MHz Type=RS41-SG Details on http://radiosondy.info
G4VFL-14U27502032022-12-06 06:24:2654.3075-3.4186179301273Clb=4.6m/s t=-1.9C calibration 80% 405.10MHz Type=RS41-SG batt=2.9V Details on http://radiosondy.info
G4VFL-14U27502032022-12-06 06:24:1154.3085-3.4183204281197Clb=4.0m/s t=-1.7C calibration 66% 405.10MHz Type=RS41-SG Details on http://radiosondy.info
G4VFL-14U27502032022-12-06 06:23:5554.3097-3.41795197331118Clb=3.4m/s calibration 50% 405.10MHz Type=RS41-SG Details on http://radiosondy.info
G4VFL-14U27502032022-12-06 06:23:4054.3108-3.41746205281049Clb=5.1m/s calibration 47% 405.10MHz Type=RS41-SG batt=2.9V Details on http://radiosondy.info
G4VFL-14U27502032022-12-06 06:23:2554.3117-3.4169920128974Clb=5.2m/s calibration 37% 405.10MHz Type=RS41-SG Details on http://radiosondy.info
G4VFL-14U27502032022-12-06 06:23:0954.3127-3.4164719628897Clb=4.7m/s calibration 25% 405.10MHz Type=RS41-SG Details on http://radiosondy.info
G4VFL-14U27502032022-12-06 06:22:5354.3138-3.4159819837819Clb=3.9m/s calibration 9% Type=RS41-SG batt=2.9V Details on http://radiosondy.info